<?xml version="1.0" encoding="UTF-8" standalone="no" ?>
<gpx xmlns="http://www.topografix.com/GPX/1/1" creator="MapSource 6.15.6" version="1.1" xmlns:xsi="http://www.w3.org/2001/XMLSchema-instance" xsi:schemaLocation="http://www.topografix.com/GPX/1/1 http://www.topografix.com/GPX/1/1/gpx.xsd">

  <metadata>
    <link href="http://www.garmin.com">
      <text>Garmin International</text>
    </link>
    <time>2009-06-17T13:09:13Z</time>
    <bounds maxlat="45.3505650" maxlon="-92.7994480" minlat="45.0366670" minlon="-93.0103400"/>
  </metadata>

  <trk>
    <name>090614_SunDr</name>
    <extensions>
      <gpxx:TrackExtension xmlns:gpxx="http://www.garmin.com/xmlschemas/GpxExtensions/v3">
        <gpxx:DisplayColor>White</gpxx:DisplayColor>
      </gpxx:TrackExtension>
    </extensions>
    <trkseg>
      <trkpt lat="45.0366670" lon="-92.8458300">
        <ele>283.7300000</ele>
        <time>2009-06-14T14:46:11Z</time>
      </trkpt>
      <trkpt lat="45.0391150" lon="-92.8433820">
        <ele>273.1500000</ele>
        <time>2009-06-14T14:46:26Z</time>
      </trkpt>
      <trkpt lat="45.0397640" lon="-92.8428370">
        <ele>272.6700000</ele>
        <time>2009-06-14T14:46:31Z</time>
      </trkpt>
      <trkpt lat="45.0397830" lon="-92.8427990">
        <ele>272.6700000</ele>
        <time>2009-06-14T14:46:32Z</time>
      </trkpt>
      <trkpt lat="45.0397150" lon="-92.8425280">
        <ele>272.6700000</ele>
        <time>2009-06-14T14:46:33Z</time>
      </trkpt>
      <trkpt lat="45.0396970" lon="-92.8424560">
        <ele>272.1900000</ele>
        <time>2009-06-14T14:46:34Z</time>
      </trkpt>
      <trkpt lat="45.0396840" lon="-92.8423580">
        <ele>272.1900000</ele>
        <time>2009-06-14T14:46:35Z</time>
      </trkpt>
      <trkpt lat="45.0396660" lon="-92.8422230">
        <ele>272.6700000</ele>
        <time>2009-06-14T14:46:36Z</time>
      </trkpt>
      <trkpt lat="45.0396460" lon="-92.8420740">
        <ele>272.6700000</ele>
        <time>2009-06-14T14:46:37Z</time>
      </trkpt>
      <trkpt lat="45.0396260" lon="-92.8419200">
        <ele>272.6700000</ele>
        <time>2009-06-14T14:46:38Z</time>
      </trkpt>
      <trkpt lat="45.0396110" lon="-92.8415190">
        <ele>272.1900000</ele>
        <time>2009-06-14T14:46:41Z</time>
      </trkpt>
      <trkpt lat="45.0396110" lon="-92.8412930">
        <ele>272.1900000</ele>
        <time>2009-06-14T14:46:43Z</time>
      </trkpt>
      <trkpt lat="45.0396110" lon="-92.8411990">
        <ele>272.1900000</ele>
        <time>2009-06-14T14:46:44Z</time>
      </trkpt>
      <trkpt lat="45.0394690" lon="-92.8409490">
        <ele>271.7100000</ele>
        <time>2009-06-14T14:46:45Z</time>
      </trkpt>
      <trkpt lat="45.0394010" lon="-92.8409460">
        <ele>271.7100000</ele>
        <time>2009-06-14T14:46:46Z</time>
      </trkpt>
      <trkpt lat="45.0393210" lon="-92.8409440">
        <ele>271.7100000</ele>
        <time>2009-06-14T14:46:47Z</time>
      </trkpt>
      <trkpt lat="45.0392280" lon="-92.8409400">
        <ele>271.7100000</ele>
        <time>2009-06-14T14:46:48Z</time>
      </trkpt>
      <trkpt lat="45.0383530" lon="-92.8409100">
        <ele>272.1900000</ele>
        <time>2009-06-14T14:46:56Z</time>
      </trkpt>
      <trkpt lat="45.0382940" lon="-92.8409080">
        <ele>272.1900000</ele>
        <time>2009-06-14T14:46:57Z</time>
      </trkpt>
      <trkpt lat="45.0382140" lon="-92.8404760">
        <ele>272.6700000</ele>
        <time>2009-06-14T14:47:00Z</time>
      </trkpt>
      <trkpt lat="45.0382210" lon="-92.8399080">
        <ele>274.5900000</ele>
        <time>2009-06-14T14:47:04Z</time>
      </trkpt>
      <trkpt lat="45.0380980" lon="-92.8398660">
        <ele>275.0700000</ele>
        <time>2009-06-14T14:47:09Z</time>
      </trkpt>
      <trkpt lat="45.0381000" lon="-92.8399520">
        <ele>275.0700000</ele>
        <time>2009-06-14T14:47:10Z</time>
      </trkpt>
      <trkpt lat="45.0381090" lon="-92.8401550">
        <ele>275.0700000</ele>
        <time>2009-06-14T14:47:12Z</time>
      </trkpt>
      <trkpt lat="45.0380830" lon="-92.8409000">
        <ele>275.0700000</ele>
        <time>2009-06-14T14:47:14Z</time>
      </trkpt>
      <trkpt lat="45.0380560" lon="-92.8408990">
        <ele>275.5600000</ele>
        <time>2009-06-14T14:47:15Z</time>
      </trkpt>
      <trkpt lat="45.0380250" lon="-92.8408980">
        <ele>275.5600000</ele>
        <time>2009-06-14T14:47:16Z</time>
      </trkpt>
      <trkpt lat="45.0380030" lon="-92.8408970">
        <ele>275.5600000</ele>
        <time>2009-06-14T14:47:17Z</time>
      </trkpt>
      <trkpt lat="45.0380030" lon="-92.8408970">
        <ele>277.4800000</ele>
        <time>2009-06-14T14:47:32Z</time>
      </trkpt>
      <trkpt lat="45.0380030" lon="-92.8408970">
        <ele>277.4800000</ele>
        <time>2009-06-14T14:47:57Z</time>
      </trkpt>
      <trkpt lat="45.0380010" lon="-92.8403850">
        <ele>265.4600000</ele>
        <time>2009-06-14T15:04:30Z</time>
      </trkpt>
      <trkpt lat="45.0380340" lon="-92.8403700">
        <ele>274.1100000</ele>
        <time>2009-06-14T15:07:17Z</time>
      </trkpt>
      <trkpt lat="45.0379160" lon="-92.8406740">
        <ele>275.5600000</ele>
        <time>2009-06-14T15:07:25Z</time>
      </trkpt>
      <trkpt lat="45.0377650" lon="-92.8407190">
        <ele>275.5600000</ele>
        <time>2009-06-14T15:07:30Z</time>
      </trkpt>
      <trkpt lat="45.0377080" lon="-92.8407130">
        <ele>275.5600000</ele>
        <time>2009-06-14T15:07:51Z</time>
      </trkpt>
      <trkpt lat="45.0374740" lon="-92.8407100">
        <ele>276.0400000</ele>
        <time>2009-06-14T15:08:13Z</time>
      </trkpt>
      <trkpt lat="45.0372750" lon="-92.8406670">
        <ele>276.5200000</ele>
        <time>2009-06-14T15:08:26Z</time>
      </trkpt>
      <trkpt lat="45.0371910" lon="-92.8405990">
        <ele>276.0400000</ele>
        <time>2009-06-14T15:08:44Z</time>
      </trkpt>
      <trkpt lat="45.0369390" lon="-92.8402350">
        <ele>276.0400000</ele>
        <time>2009-06-14T15:08:57Z</time>
      </trkpt>
      <trkpt lat="45.0369080" lon="-92.8399330">
        <ele>276.5200000</ele>
        <time>2009-06-14T15:09:03Z</time>
      </trkpt>
      <trkpt lat="45.0370160" lon="-92.8398590">
        <ele>277.4800000</ele>
        <time>2009-06-14T15:09:07Z</time>
      </trkpt>
      <trkpt lat="45.0374070" lon="-92.8398660">
        <ele>279.4000000</ele>
        <time>2009-06-14T15:09:20Z</time>
      </trkpt>
      <trkpt lat="45.0376670" lon="-92.8398860">
        <ele>279.8800000</ele>
        <time>2009-06-14T15:09:25Z</time>
      </trkpt>
      <trkpt lat="45.0379300" lon="-92.8397380">
        <ele>280.8400000</ele>
        <time>2009-06-14T15:09:33Z</time>
      </trkpt>
      <trkpt lat="45.0380000" lon="-92.8397250">
        <ele>282.7700000</ele>
        <time>2009-06-14T15:09:47Z</time>
      </trkpt>
      <trkpt lat="45.0381780" lon="-92.8397180">
        <ele>284.2100000</ele>
        <time>2009-06-14T15:10:00Z</time>
      </trkpt>
      <trkpt lat="45.0382340" lon="-92.8397340">
        <ele>284.2100000</ele>
        <time>2009-06-14T15:10:02Z</time>
      </trkpt>
      <trkpt lat="45.0383560" lon="-92.8401190">
        <ele>284.2100000</ele>
        <time>2009-06-14T15:10:07Z</time>
      </trkpt>
      <trkpt lat="45.0383740" lon="-92.8407430">
        <ele>282.2800000</ele>
        <time>2009-06-14T15:10:13Z</time>
      </trkpt>
      <trkpt lat="45.0383940" lon="-92.8409110">
        <ele>281.8000000</ele>
        <time>2009-06-14T15:10:15Z</time>
      </trkpt>
      <trkpt lat="45.0384260" lon="-92.8409120">
        <ele>281.8000000</ele>
        <time>2009-06-14T15:10:16Z</time>
      </trkpt>
      <trkpt lat="45.0384850" lon="-92.8409140">
        <ele>281.8000000</ele>
        <time>2009-06-14T15:10:17Z</time>
      </trkpt>
      <trkpt lat="45.0385580" lon="-92.8409170">
        <ele>281.8000000</ele>
        <time>2009-06-14T15:10:18Z</time>
      </trkpt>
      <trkpt lat="45.0390130" lon="-92.8409330">
        <ele>281.8000000</ele>
        <time>2009-06-14T15:10:26Z</time>
      </trkpt>
      <trkpt lat="45.0391640" lon="-92.8409380">
        <ele>282.7700000</ele>
        <time>2009-06-14T15:10:43Z</time>
      </trkpt>
      <trkpt lat="45.0399900" lon="-92.8409230">
        <ele>282.2800000</ele>
        <time>2009-06-14T15:10:51Z</time>
      </trkpt>
      <trkpt lat="45.0400930" lon="-92.8409140">
        <ele>282.2800000</ele>
        <time>2009-06-14T15:10:52Z</time>
      </trkpt>
      <trkpt lat="45.0401820" lon="-92.8408870">
        <ele>281.8000000</ele>
        <time>2009-06-14T15:10:53Z</time>
      </trkpt>
      <trkpt lat="45.0402760" lon="-92.8408470">
        <ele>281.8000000</ele>
        <time>2009-06-14T15:10:54Z</time>
      </trkpt>
      <trkpt lat="45.0403710" lon="-92.8408060">
        <ele>281.8000000</ele>
        <time>2009-06-14T15:10:55Z</time>
      </trkpt>
      <trkpt lat="45.0404570" lon="-92.8407380">
        <ele>281.8000000</ele>
        <time>2009-06-14T15:10:56Z</time>
      </trkpt>
      <trkpt lat="45.0405260" lon="-92.8406340">
        <ele>281.8000000</ele>
        <time>2009-06-14T15:10:57Z</time>
      </trkpt>
      <trkpt lat="45.0405970" lon="-92.8405270">
        <ele>281.8000000</ele>
        <time>2009-06-14T15:10:58Z</time>
      </trkpt>
      <trkpt lat="45.0417210" lon="-92.8388880">
        <ele>281.8000000</ele>
        <time>2009-06-14T15:11:12Z</time>
      </trkpt>
      <trkpt lat="45.0418140" lon="-92.8388090">
        <ele>282.2800000</ele>
        <time>2009-06-14T15:11:13Z</time>
      </trkpt>
      <trkpt lat="45.0419070" lon="-92.8387380">
        <ele>282.2800000</ele>
        <time>2009-06-14T15:11:14Z</time>
      </trkpt>
      <trkpt lat="45.0420000" lon="-92.8386690">
        <ele>282.2800000</ele>
        <time>2009-06-14T15:11:15Z</time>
      </trkpt>
      <trkpt lat="45.0420870" lon="-92.8386040">
        <ele>282.2800000</ele>
        <time>2009-06-14T15:11:16Z</time>
      </trkpt>
      <trkpt lat="45.0421860" lon="-92.8385770">
        <ele>282.2800000</ele>
        <time>2009-06-14T15:11:17Z</time>
      </trkpt>
      <trkpt lat="45.0422680" lon="-92.8385600">
        <ele>282.7700000</ele>
        <time>2009-06-14T15:11:18Z</time>
      </trkpt>
      <trkpt lat="45.0423420" lon="-92.8385510">
        <ele>282.7700000</ele>
        <time>2009-06-14T15:11:19Z</time>
      </trkpt>
      <trkpt lat="45.0424060" lon="-92.8385510">
        <ele>282.7700000</ele>
        <time>2009-06-14T15:11:20Z</time>
      </trkpt>
      <trkpt lat="45.0427670" lon="-92.8385510">
        <ele>283.2500000</ele>
        <time>2009-06-14T15:11:30Z</time>
      </trkpt>
      <trkpt lat="45.0429980" lon="-92.8385510">
        <ele>283.7300000</ele>
        <time>2009-06-14T15:11:37Z</time>
      </trkpt>
      <trkpt lat="45.0430020" lon="-92.8385510">
        <ele>283.7300000</ele>
        <time>2009-06-14T15:11:38Z</time>
      </trkpt>
      <trkpt lat="45.0430020" lon="-92.8385510">
        <ele>283.7300000</ele>
        <time>2009-06-14T15:11:39Z</time>
      </trkpt>
      <trkpt lat="45.0430410" lon="-92.8387790">
        <ele>283.7300000</ele>
        <time>2009-06-14T15:11:40Z</time>
      </trkpt>
      <trkpt lat="45.0430630" lon="-92.8389010">
        <ele>284.2100000</ele>
        <time>2009-06-14T15:11:41Z</time>
      </trkpt>
      <trkpt lat="45.0430840" lon="-92.8390240">
        <ele>283.7300000</ele>
        <time>2009-06-14T15:11:42Z</time>
      </trkpt>
      <trkpt lat="45.0431200" lon="-92.8392310">
        <ele>283.7300000</ele>
        <time>2009-06-14T15:11:44Z</time>
      </trkpt>
      <trkpt lat="45.0431300" lon="-92.8392900">
        <ele>283.7300000</ele>
        <time>2009-06-14T15:11:45Z</time>
      </trkpt>
      <trkpt lat="45.0431370" lon="-92.8393270">
        <ele>283.7300000</ele>
        <time>2009-06-14T15:11:46Z</time>
      </trkpt>
      <trkpt lat="45.0431420" lon="-92.8393580">
        <ele>284.2100000</ele>
        <time>2009-06-14T15:11:47Z</time>
      </trkpt>
      <trkpt lat="45.0433470" lon="-92.8393750">
        <ele>284.2100000</ele>
        <time>2009-06-14T15:11:48Z</time>
      </trkpt>
      <trkpt lat="45.0433880" lon="-92.8393370">
        <ele>283.7300000</ele>
        <time>2009-06-14T15:11:49Z</time>
      </trkpt>
      <trkpt lat="45.0434410" lon="-92.8392870">
        <ele>283.7300000</ele>
        <time>2009-06-14T15:11:50Z</time>
      </trkpt>
      <trkpt lat="45.0435030" lon="-92.8392290">
        <ele>283.7300000</ele>
        <time>2009-06-14T15:11:51Z</time>
      </trkpt>
      <trkpt lat="45.0435750" lon="-92.8391610">
        <ele>283.2500000</ele>
        <time>2009-06-14T15:11:52Z</time>
      </trkpt>
      <trkpt lat="45.0446430" lon="-92.8381600">
        <ele>283.2500000</ele>
        <time>2009-06-14T15:12:04Z</time>
      </trkpt>
      <trkpt lat="45.0461860" lon="-92.8366970">
        <ele>285.6500000</ele>
        <time>2009-06-14T15:12:18Z</time>
      </trkpt>
      <trkpt lat="45.0483080" lon="-92.8347770">
        <ele>288.0500000</ele>
        <time>2009-06-14T15:12:36Z</time>
      </trkpt>
      <trkpt lat="45.0497720" lon="-92.8338480">
        <ele>289.4900000</ele>
        <time>2009-06-14T15:12:49Z</time>
      </trkpt>
      <trkpt lat="45.0518540" lon="-92.8327390">
        <ele>286.6100000</ele>
        <time>2009-06-14T15:13:06Z</time>
      </trkpt>
      <trkpt lat="45.0527130" lon="-92.8321820">
        <ele>285.1700000</ele>
        <time>2009-06-14T15:13:13Z</time>
      </trkpt>
      <trkpt lat="45.0528040" lon="-92.8320590">
        <ele>284.6900000</ele>
        <time>2009-06-14T15:13:14Z</time>
      </trkpt>
      <trkpt lat="45.0528970" lon="-92.8319110">
        <ele>284.2100000</ele>
        <time>2009-06-14T15:13:15Z</time>
      </trkpt>
      <trkpt lat="45.0529580" lon="-92.8318130">
        <ele>283.7300000</ele>
        <time>2009-06-14T15:13:16Z</time>
      </trkpt>
      <trkpt lat="45.0529580" lon="-92.8318130">
        <ele>283.2500000</ele>
        <time>2009-06-14T15:13:17Z</time>
      </trkpt>
      <trkpt lat="45.0529580" lon="-92.8318130">
        <ele>282.2800000</ele>
        <time>2009-06-14T15:13:18Z</time>
      </trkpt>
      <trkpt lat="45.0530440" lon="-92.8312460">
        <ele>281.3200000</ele>
        <time>2009-06-14T15:13:19Z</time>
      </trkpt>
      <trkpt lat="45.0530440" lon="-92.8310370">
        <ele>280.3600000</ele>
        <time>2009-06-14T15:13:20Z</time>
      </trkpt>
      <trkpt lat="45.0530440" lon="-92.8308290">
        <ele>278.9200000</ele>
        <time>2009-06-14T15:13:21Z</time>
      </trkpt>
      <trkpt lat="45.0530440" lon="-92.8276370">
        <ele>271.2300000</ele>
        <time>2009-06-14T15:13:37Z</time>
      </trkpt>
      <trkpt lat="45.0530440" lon="-92.8243080">
        <ele>275.0700000</ele>
        <time>2009-06-14T15:13:56Z</time>
      </trkpt>
      <trkpt lat="45.0530440" lon="-92.8208930">
        <ele>278.4400000</ele>
        <time>2009-06-14T15:14:15Z</time>
      </trkpt>
      <trkpt lat="45.0530440" lon="-92.8204130">
        <ele>278.4400000</ele>
        <time>2009-06-14T15:14:21Z</time>
      </trkpt>
      <trkpt lat="45.0530440" lon="-92.8203120">
        <ele>278.4400000</ele>
        <time>2009-06-14T15:14:22Z</time>
      </trkpt>
      <trkpt lat="45.0530440" lon="-92.8203120">
        <ele>278.9200000</ele>
        <time>2009-06-14T15:14:23Z</time>
      </trkpt>
      <trkpt lat="45.0531780" lon="-92.8203190">
        <ele>278.9200000</ele>
        <time>2009-06-14T15:14:24Z</time>
      </trkpt>
      <trkpt lat="45.0532580" lon="-92.8203240">
        <ele>279.4000000</ele>
        <time>2009-06-14T15:14:25Z</time>
      </trkpt>
      <trkpt lat="45.0533330" lon="-92.8203290">
        <ele>279.4000000</ele>
        <time>2009-06-14T15:14:26Z</time>
      </trkpt>
      <trkpt lat="45.0533640" lon="-92.8203300">
        <ele>281.8000000</ele>
        <time>2009-06-14T15:14:32Z</time>
      </trkpt>
      <trkpt lat="45.0536230" lon="-92.8203460">
        <ele>284.2100000</ele>
        <time>2009-06-14T15:14:44Z</time>
      </trkpt>
      <trkpt lat="45.0537900" lon="-92.8203550">
        <ele>286.1300000</ele>
        <time>2009-06-14T15:14:57Z</time>
      </trkpt>
      <trkpt lat="45.0539690" lon="-92.8203620">
        <ele>287.0900000</ele>
        <time>2009-06-14T15:15:07Z</time>
      </trkpt>
      <trkpt lat="45.0541430" lon="-92.8203690">
        <ele>287.5700000</ele>
        <time>2009-06-14T15:15:22Z</time>
      </trkpt>
      <trkpt lat="45.0543060" lon="-92.8203760">
        <ele>288.0500000</ele>
        <time>2009-06-14T15:15:34Z</time>
      </trkpt>
      <trkpt lat="45.0544990" lon="-92.8203840">
        <ele>288.0500000</ele>
        <time>2009-06-14T15:15:49Z</time>
      </trkpt>
      <trkpt lat="45.0546690" lon="-92.8203900">
        <ele>288.0500000</ele>
        <time>2009-06-14T15:16:03Z</time>
      </trkpt>
      <trkpt lat="45.0548480" lon="-92.8203980">
        <ele>288.5300000</ele>
        <time>2009-06-14T15:16:16Z</time>
      </trkpt>
      <trkpt lat="45.0554620" lon="-92.8203980">
        <ele>288.5300000</ele>
        <time>2009-06-14T15:16:24Z</time>
      </trkpt>
      <trkpt lat="45.0569710" lon="-92.8203980">
        <ele>284.6900000</ele>
        <time>2009-06-14T15:16:38Z</time>
      </trkpt>
      <trkpt lat="45.0586980" lon="-92.8203870">
        <ele>275.5600000</ele>
        <time>2009-06-14T15:16:53Z</time>
      </trkpt>
      <trkpt lat="45.0601970" lon="-92.8203600">
        <ele>269.7900000</ele>
        <time>2009-06-14T15:17:05Z</time>
      </trkpt>
      <trkpt lat="45.0613670" lon="-92.8205260">
        <ele>278.4400000</ele>
        <time>2009-06-14T15:17:15Z</time>
      </trkpt>
      <trkpt lat="45.0629890" lon="-92.8205260">
        <ele>289.9700000</ele>
        <time>2009-06-14T15:17:28Z</time>
      </trkpt>
      <trkpt lat="45.0650590" lon="-92.8206040">
        <ele>294.3000000</ele>
        <time>2009-06-14T15:17:44Z</time>
      </trkpt>
      <trkpt lat="45.0668580" lon="-92.8207950">
        <ele>291.9000000</ele>
        <time>2009-06-14T15:17:58Z</time>
      </trkpt>
      <trkpt lat="45.0679760" lon="-92.8212560">
        <ele>292.3800000</ele>
        <time>2009-06-14T15:18:07Z</time>
      </trkpt>
      <trkpt lat="45.0689380" lon="-92.8222900">
        <ele>290.9400000</ele>
        <time>2009-06-14T15:18:13Z</time>
      </trkpt>
      <trkpt lat="45.0720120" lon="-92.8255480">
        <ele>279.4000000</ele>
        <time>2009-06-14T15:18:30Z</time>
      </trkpt>
      <trkpt lat="45.0745900" lon="-92.8280260">
        <ele>276.5200000</ele>
        <time>2009-06-14T15:18:44Z</time>
      </trkpt>
      <trkpt lat="45.0762780" lon="-92.8289710">
        <ele>273.6300000</ele>
        <time>2009-06-14T15:18:54Z</time>
      </trkpt>
      <trkpt lat="45.0772350" lon="-92.8295030">
        <ele>272.6700000</ele>
        <time>2009-06-14T15:19:02Z</time>
      </trkpt>
      <trkpt lat="45.0776320" lon="-92.8297320">
        <ele>272.6700000</ele>
        <time>2009-06-14T15:19:09Z</time>
      </trkpt>
      <trkpt lat="45.0777310" lon="-92.8297890">
        <ele>273.6300000</ele>
        <time>2009-06-14T15:19:20Z</time>
      </trkpt>
      <trkpt lat="45.0779560" lon="-92.8299180">
        <ele>275.0700000</ele>
        <time>2009-06-14T15:19:29Z</time>
      </trkpt>
      <trkpt lat="45.0788270" lon="-92.8304200">
        <ele>276.0400000</ele>
        <time>2009-06-14T15:19:37Z</time>
      </trkpt>
      <trkpt lat="45.0803600" lon="-92.8311160">
        <ele>280.8400000</ele>
        <time>2009-06-14T15:19:48Z</time>
      </trkpt>
      <trkpt lat="45.0829930" lon="-92.8321650">
        <ele>282.7700000</ele>
        <time>2009-06-14T15:20:06Z</time>
      </trkpt>
      <trkpt lat="45.0853670" lon="-92.8331030">
        <ele>285.6500000</ele>
        <time>2009-06-14T15:20:21Z</time>
      </trkpt>
      <trkpt lat="45.0872840" lon="-92.8334440">
        <ele>293.3400000</ele>
        <time>2009-06-14T15:20:32Z</time>
      </trkpt>
      <trkpt lat="45.0896040" lon="-92.8334330">
        <ele>287.0900000</ele>
        <time>2009-06-14T15:20:43Z</time>
      </trkpt>
      <trkpt lat="45.0935880" lon="-92.8333530">
        <ele>284.6900000</ele>
        <time>2009-06-14T15:21:01Z</time>
      </trkpt>
      <trkpt lat="45.0964300" lon="-92.8333390">
        <ele>275.5600000</ele>
        <time>2009-06-14T15:21:14Z</time>
      </trkpt>
      <trkpt lat="45.0997430" lon="-92.8333220">
        <ele>278.9200000</ele>
        <time>2009-06-14T15:21:29Z</time>
      </trkpt>
      <trkpt lat="45.1034480" lon="-92.8332870">
        <ele>276.5200000</ele>
        <time>2009-06-14T15:21:46Z</time>
      </trkpt>
      <trkpt lat="45.1070150" lon="-92.8332630">
        <ele>286.1300000</ele>
        <time>2009-06-14T15:22:03Z</time>
      </trkpt>
      <trkpt lat="45.1106650" lon="-92.8332490">
        <ele>285.1700000</ele>
        <time>2009-06-14T15:22:20Z</time>
      </trkpt>
      <trkpt lat="45.1144330" lon="-92.8332340">
        <ele>288.0500000</ele>
        <time>2009-06-14T15:22:39Z</time>
      </trkpt>
      <trkpt lat="45.1163010" lon="-92.8334010">
        <ele>288.0500000</ele>
        <time>2009-06-14T15:22:49Z</time>
      </trkpt>
      <trkpt lat="45.1178180" lon="-92.8342940">
        <ele>292.3800000</ele>
        <time>2009-06-14T15:22:57Z</time>
      </trkpt>
      <trkpt lat="45.1209290" lon="-92.8363800">
        <ele>296.2200000</ele>
        <time>2009-06-14T15:23:14Z</time>
      </trkpt>
      <trkpt lat="45.1240160" lon="-92.8381330">
        <ele>299.5900000</ele>
        <time>2009-06-14T15:23:31Z</time>
      </trkpt>
      <trkpt lat="45.1256370" lon="-92.8382580">
        <ele>298.6300000</ele>
        <time>2009-06-14T15:23:39Z</time>
      </trkpt>
      <trkpt lat="45.1291660" lon="-92.8384360">
        <ele>295.7400000</ele>
        <time>2009-06-14T15:23:56Z</time>
      </trkpt>
      <trkpt lat="45.1302480" lon="-92.8391930">
        <ele>296.2200000</ele>
        <time>2009-06-14T15:24:02Z</time>
      </trkpt>
      <trkpt lat="45.1314300" lon="-92.8407540">
        <ele>296.7000000</ele>
        <time>2009-06-14T15:24:10Z</time>
      </trkpt>
      <trkpt lat="45.1324660" lon="-92.8416390">
        <ele>298.6300000</ele>
        <time>2009-06-14T15:24:16Z</time>
      </trkpt>
      <trkpt lat="45.1337180" lon="-92.8418500">
        <ele>299.5900000</ele>
        <time>2009-06-14T15:24:22Z</time>
      </trkpt>
      <trkpt lat="45.1368840" lon="-92.8417420">
        <ele>290.4600000</ele>
        <time>2009-06-14T15:24:38Z</time>
      </trkpt>
      <trkpt lat="45.1379280" lon="-92.8418870">
        <ele>289.0100000</ele>
        <time>2009-06-14T15:24:45Z</time>
      </trkpt>
      <trkpt lat="45.1383840" lon="-92.8421550">
        <ele>291.9000000</ele>
        <time>2009-06-14T15:24:51Z</time>
      </trkpt>
      <trkpt lat="45.1385700" lon="-92.8421580">
        <ele>291.4200000</ele>
        <time>2009-06-14T15:24:57Z</time>
      </trkpt>
      <trkpt lat="45.1385990" lon="-92.8420950">
        <ele>290.9400000</ele>
        <time>2009-06-14T15:24:58Z</time>
      </trkpt>
      <trkpt lat="45.1386360" lon="-92.8420160">
        <ele>290.9400000</ele>
        <time>2009-06-14T15:24:59Z</time>
      </trkpt>
      <trkpt lat="45.1386850" lon="-92.8419130">
        <ele>290.4600000</ele>
        <time>2009-06-14T15:25:00Z</time>
      </trkpt>
      <trkpt lat="45.1387460" lon="-92.8417810">
        <ele>289.9700000</ele>
        <time>2009-06-14T15:25:01Z</time>
      </trkpt>
      <trkpt lat="45.1388160" lon="-92.8416310">
        <ele>289.4900000</ele>
        <time>2009-06-14T15:25:02Z</time>
      </trkpt>
      <trkpt lat="45.1395530" lon="-92.8400700">
        <ele>284.2100000</ele>
        <time>2009-06-14T15:25:10Z</time>
      </trkpt>
      <trkpt lat="45.1409500" lon="-92.8372740">
        <ele>281.3200000</ele>
        <time>2009-06-14T15:25:21Z</time>
      </trkpt>
      <trkpt lat="45.1423830" lon="-92.8344100">
        <ele>283.2500000</ele>
        <time>2009-06-14T15:25:33Z</time>
      </trkpt>
      <trkpt lat="45.1430370" lon="-92.8331010">
        <ele>288.0500000</ele>
        <time>2009-06-14T15:25:41Z</time>
      </trkpt>
      <trkpt lat="45.1432030" lon="-92.8327690">
        <ele>289.4900000</ele>
        <time>2009-06-14T15:25:44Z</time>
      </trkpt>
      <trkpt lat="45.1432320" lon="-92.8326940">
        <ele>290.4600000</ele>
        <time>2009-06-14T15:25:45Z</time>
      </trkpt>
      <trkpt lat="45.1433250" lon="-92.8328190">
        <ele>290.9400000</ele>
        <time>2009-06-14T15:25:46Z</time>
      </trkpt>
      <trkpt lat="45.1434120" lon="-92.8328670">
        <ele>291.4200000</ele>
        <time>2009-06-14T15:25:47Z</time>
      </trkpt>
      <trkpt lat="45.1435120" lon="-92.8329200">
        <ele>291.4200000</ele>
        <time>2009-06-14T15:25:48Z</time>
      </trkpt>
      <trkpt lat="45.1441710" lon="-92.8330810">
        <ele>291.4200000</ele>
        <time>2009-06-14T15:25:53Z</time>
      </trkpt>
      <trkpt lat="45.1443180" lon="-92.8330540">
        <ele>291.4200000</ele>
        <time>2009-06-14T15:25:54Z</time>
      </trkpt>
      <trkpt lat="45.1444650" lon="-92.8330270">
        <ele>291.4200000</ele>
        <time>2009-06-14T15:25:55Z</time>
      </trkpt>
      <trkpt lat="45.1457520" lon="-92.8329050">
        <ele>292.3800000</ele>
        <time>2009-06-14T15:26:03Z</time>
      </trkpt>
      <trkpt lat="45.1475170" lon="-92.8331920">
        <ele>288.0500000</ele>
        <time>2009-06-14T15:26:14Z</time>
      </trkpt>
      <trkpt lat="45.1493550" lon="-92.8339030">
        <ele>285.6500000</ele>
        <time>2009-06-14T15:26:26Z</time>
      </trkpt>
      <trkpt lat="45.1514800" lon="-92.8348790">
        <ele>296.2200000</ele>
        <time>2009-06-14T15:26:39Z</time>
      </trkpt>
      <trkpt lat="45.1533130" lon="-92.8354180">
        <ele>301.5100000</ele>
        <time>2009-06-14T15:26:50Z</time>
      </trkpt>
      <trkpt lat="45.1556940" lon="-92.8353940">
        <ele>305.8400000</ele>
        <time>2009-06-14T15:27:04Z</time>
      </trkpt>
      <trkpt lat="45.1586120" lon="-92.8353310">
        <ele>301.0300000</ele>
        <time>2009-06-14T15:27:20Z</time>
      </trkpt>
      <trkpt lat="45.1626370" lon="-92.8352220">
        <ele>295.2600000</ele>
        <time>2009-06-14T15:27:42Z</time>
      </trkpt>
      <trkpt lat="45.1644650" lon="-92.8347050">
        <ele>289.4900000</ele>
        <time>2009-06-14T15:27:52Z</time>
      </trkpt>
      <trkpt lat="45.1646500" lon="-92.8347020">
        <ele>288.5300000</ele>
        <time>2009-06-14T15:27:53Z</time>
      </trkpt>
      <trkpt lat="45.1648320" lon="-92.8347400">
        <ele>288.5300000</ele>
        <time>2009-06-14T15:27:54Z</time>
      </trkpt>
      <trkpt lat="45.1650150" lon="-92.8347830">
        <ele>289.0100000</ele>
        <time>2009-06-14T15:27:55Z</time>
      </trkpt>
      <trkpt lat="45.1670730" lon="-92.8351980">
        <ele>291.9000000</ele>
        <time>2009-06-14T15:28:07Z</time>
      </trkpt>
      <trkpt lat="45.1690120" lon="-92.8351270">
        <ele>290.4600000</ele>
        <time>2009-06-14T15:28:18Z</time>
      </trkpt>
      <trkpt lat="45.1719620" lon="-92.8351600">
        <ele>299.1100000</ele>
        <time>2009-06-14T15:28:35Z</time>
      </trkpt>
      <trkpt lat="45.1743320" lon="-92.8350730">
        <ele>300.0700000</ele>
        <time>2009-06-14T15:28:49Z</time>
      </trkpt>
      <trkpt lat="45.1761980" lon="-92.8346380">
        <ele>300.5500000</ele>
        <time>2009-06-14T15:29:00Z</time>
      </trkpt>
      <trkpt lat="45.1763730" lon="-92.8346110">
        <ele>300.5500000</ele>
        <time>2009-06-14T15:29:01Z</time>
      </trkpt>
      <trkpt lat="45.1765430" lon="-92.8346630">
        <ele>301.0300000</ele>
        <time>2009-06-14T15:29:02Z</time>
      </trkpt>
      <trkpt lat="45.1767120" lon="-92.8347570">
        <ele>301.5100000</ele>
        <time>2009-06-14T15:29:03Z</time>
      </trkpt>
      <trkpt lat="45.1768900" lon="-92.8348560">
        <ele>301.0300000</ele>
        <time>2009-06-14T15:29:04Z</time>
      </trkpt>
      <trkpt lat="45.1770680" lon="-92.8349550">
        <ele>301.0300000</ele>
        <time>2009-06-14T15:29:05Z</time>
      </trkpt>
      <trkpt lat="45.1775780" lon="-92.8351330">
        <ele>300.5500000</ele>
        <time>2009-06-14T15:29:08Z</time>
      </trkpt>
      <trkpt lat="45.1777370" lon="-92.8351590">
        <ele>300.0700000</ele>
        <time>2009-06-14T15:29:09Z</time>
      </trkpt>
      <trkpt lat="45.1778920" lon="-92.8351460">
        <ele>300.0700000</ele>
        <time>2009-06-14T15:29:10Z</time>
      </trkpt>
      <trkpt lat="45.1780450" lon="-92.8351330">
        <ele>301.5100000</ele>
        <time>2009-06-14T15:29:11Z</time>
      </trkpt>
      <trkpt lat="45.1782080" lon="-92.8351200">
        <ele>301.9900000</ele>
        <time>2009-06-14T15:29:12Z</time>
      </trkpt>
      <trkpt lat="45.1783840" lon="-92.8351060">
        <ele>301.9900000</ele>
        <time>2009-06-14T15:29:13Z</time>
      </trkpt>
      <trkpt lat="45.1806030" lon="-92.8350130">
        <ele>294.7800000</ele>
        <time>2009-06-14T15:29:25Z</time>
      </trkpt>
      <trkpt lat="45.1827540" lon="-92.8350810">
        <ele>298.6300000</ele>
        <time>2009-06-14T15:29:37Z</time>
      </trkpt>
      <trkpt lat="45.1846590" lon="-92.8351410">
        <ele>299.1100000</ele>
        <time>2009-06-14T15:29:49Z</time>
      </trkpt>
      <trkpt lat="45.1853500" lon="-92.8351690">
        <ele>294.7800000</ele>
        <time>2009-06-14T15:29:56Z</time>
      </trkpt>
      <trkpt lat="45.1856230" lon="-92.8351960">
        <ele>295.2600000</ele>
        <time>2009-06-14T15:30:04Z</time>
      </trkpt>
      <trkpt lat="45.1861550" lon="-92.8352030">
        <ele>291.9000000</ele>
        <time>2009-06-14T15:30:12Z</time>
      </trkpt>
      <trkpt lat="45.1871710" lon="-92.8352030">
        <ele>289.0100000</ele>
        <time>2009-06-14T15:30:18Z</time>
      </trkpt>
      <trkpt lat="45.1892270" lon="-92.8352030">
        <ele>289.9700000</ele>
        <time>2009-06-14T15:30:31Z</time>
      </trkpt>
      <trkpt lat="45.1920510" lon="-92.8352030">
        <ele>294.7800000</ele>
        <time>2009-06-14T15:30:49Z</time>
      </trkpt>
      <trkpt lat="45.1947860" lon="-92.8352030">
        <ele>299.5900000</ele>
        <time>2009-06-14T15:31:07Z</time>
      </trkpt>
      <trkpt lat="45.1949680" lon="-92.8352030">
        <ele>299.5900000</ele>
        <time>2009-06-14T15:31:12Z</time>
      </trkpt>
      <trkpt lat="45.1951450" lon="-92.8352030">
        <ele>299.1100000</ele>
        <time>2009-06-14T15:31:21Z</time>
      </trkpt>
      <trkpt lat="45.1954100" lon="-92.8352030">
        <ele>299.1100000</ele>
        <time>2009-06-14T15:31:32Z</time>
      </trkpt>
      <trkpt lat="45.1958140" lon="-92.8352030">
        <ele>299.5900000</ele>
        <time>2009-06-14T15:31:43Z</time>
      </trkpt>
      <trkpt lat="45.1959570" lon="-92.8352030">
        <ele>299.5900000</ele>
        <time>2009-06-14T15:31:50Z</time>
      </trkpt>
      <trkpt lat="45.1959900" lon="-92.8352030">
        <ele>299.5900000</ele>
        <time>2009-06-14T15:31:51Z</time>
      </trkpt>
      <trkpt lat="45.1959970" lon="-92.8350730">
        <ele>299.5900000</ele>
        <time>2009-06-14T15:31:52Z</time>
      </trkpt>
      <trkpt lat="45.1959990" lon="-92.8349780">
        <ele>299.5900000</ele>
        <time>2009-06-14T15:31:53Z</time>
      </trkpt>
      <trkpt lat="45.1960010" lon="-92.8348680">
        <ele>299.5900000</ele>
        <time>2009-06-14T15:31:54Z</time>
      </trkpt>
      <trkpt lat="45.1960030" lon="-92.8347390">
        <ele>300.0700000</ele>
        <time>2009-06-14T15:31:55Z</time>
      </trkpt>
      <trkpt lat="45.1960220" lon="-92.8336730">
        <ele>300.5500000</ele>
        <time>2009-06-14T15:32:00Z</time>
      </trkpt>
      <trkpt lat="45.1957990" lon="-92.8312560">
        <ele>301.9900000</ele>
        <time>2009-06-14T15:32:09Z</time>
      </trkpt>
      <trkpt lat="45.1952040" lon="-92.8297390">
        <ele>301.0300000</ele>
        <time>2009-06-14T15:32:16Z</time>
      </trkpt>
      <trkpt lat="45.1947900" lon="-92.8279320">
        <ele>300.0700000</ele>
        <time>2009-06-14T15:32:25Z</time>
      </trkpt>
      <trkpt lat="45.1946490" lon="-92.8270490">
        <ele>300.0700000</ele>
        <time>2009-06-14T15:32:30Z</time>
      </trkpt>
      <trkpt lat="45.1946310" lon="-92.8269370">
        <ele>300.0700000</ele>
        <time>2009-06-14T15:32:31Z</time>
      </trkpt>
      <trkpt lat="45.1948210" lon="-92.8268280">
        <ele>300.0700000</ele>
        <time>2009-06-14T15:32:32Z</time>
      </trkpt>
      <trkpt lat="45.1949370" lon="-92.8267990">
        <ele>300.0700000</ele>
        <time>2009-06-14T15:32:33Z</time>
      </trkpt>
      <trkpt lat="45.1950680" lon="-92.8267660">
        <ele>299.5900000</ele>
        <time>2009-06-14T15:32:34Z</time>
      </trkpt>
      <trkpt lat="45.1952030" lon="-92.8267320">
        <ele>299.5900000</ele>
        <time>2009-06-14T15:32:35Z</time>
      </trkpt>
      <trkpt lat="45.1962780" lon="-92.8260410">
        <ele>300.0700000</ele>
        <time>2009-06-14T15:32:43Z</time>
      </trkpt>
      <trkpt lat="45.1976050" lon="-92.8253400">
        <ele>300.5500000</ele>
        <time>2009-06-14T15:32:51Z</time>
      </trkpt>
      <trkpt lat="45.1992360" lon="-92.8252610">
        <ele>303.4300000</ele>
        <time>2009-06-14T15:32:59Z</time>
      </trkpt>
      <trkpt lat="45.2024330" lon="-92.8250690">
        <ele>305.8400000</ele>
        <time>2009-06-14T15:33:15Z</time>
      </trkpt>
      <trkpt lat="45.2069300" lon="-92.8249550">
        <ele>306.3200000</ele>
        <time>2009-06-14T15:33:38Z</time>
      </trkpt>
      <trkpt lat="45.2098490" lon="-92.8249750">
        <ele>308.7200000</ele>
        <time>2009-06-14T15:33:52Z</time>
      </trkpt>
      <trkpt lat="45.2146240" lon="-92.8250110">
        <ele>305.3600000</ele>
        <time>2009-06-14T15:34:16Z</time>
      </trkpt>
      <trkpt lat="45.2199920" lon="-92.8250710">
        <ele>303.4300000</ele>
        <time>2009-06-14T15:34:42Z</time>
      </trkpt>
      <trkpt lat="45.2249480" lon="-92.8251370">
        <ele>301.5100000</ele>
        <time>2009-06-14T15:35:05Z</time>
      </trkpt>
      <trkpt lat="45.2290000" lon="-92.8250300">
        <ele>301.5100000</ele>
        <time>2009-06-14T15:35:24Z</time>
      </trkpt>
      <trkpt lat="45.2313840" lon="-92.8246140">
        <ele>304.8800000</ele>
        <time>2009-06-14T15:35:36Z</time>
      </trkpt>
      <trkpt lat="45.2320560" lon="-92.8239860">
        <ele>307.2800000</ele>
        <time>2009-06-14T15:35:40Z</time>
      </trkpt>
      <trkpt lat="45.2322090" lon="-92.8237820">
        <ele>307.2800000</ele>
        <time>2009-06-14T15:35:41Z</time>
      </trkpt>
      <trkpt lat="45.2323440" lon="-92.8235730">
        <ele>307.7600000</ele>
        <time>2009-06-14T15:35:42Z</time>
      </trkpt>
      <trkpt lat="45.2324680" lon="-92.8233250">
        <ele>308.2400000</ele>
        <time>2009-06-14T15:35:43Z</time>
      </trkpt>
      <trkpt lat="45.2325940" lon="-92.8230740">
        <ele>308.7200000</ele>
        <time>2009-06-14T15:35:44Z</time>
      </trkpt>
      <trkpt lat="45.2326930" lon="-92.8228020">
        <ele>309.2000000</ele>
        <time>2009-06-14T15:35:45Z</time>
      </trkpt>
      <trkpt lat="45.2327940" lon="-92.8225200">
        <ele>309.6800000</ele>
        <time>2009-06-14T15:35:46Z</time>
      </trkpt>
      <trkpt lat="45.2336750" lon="-92.8208270">
        <ele>312.5700000</ele>
        <time>2009-06-14T15:35:53Z</time>
      </trkpt>
      <trkpt lat="45.2345790" lon="-92.8201650">
        <ele>315.4500000</ele>
        <time>2009-06-14T15:35:58Z</time>
      </trkpt>
      <trkpt lat="45.2347760" lon="-92.8200850">
        <ele>315.4500000</ele>
        <time>2009-06-14T15:35:59Z</time>
      </trkpt>
      <trkpt lat="45.2349870" lon="-92.8200540">
        <ele>315.9300000</ele>
        <time>2009-06-14T15:36:00Z</time>
      </trkpt>
      <trkpt lat="45.2352030" lon="-92.8200480">
        <ele>315.9300000</ele>
        <time>2009-06-14T15:36:01Z</time>
      </trkpt>
      <trkpt lat="45.2354230" lon="-92.8200420">
        <ele>315.9300000</ele>
        <time>2009-06-14T15:36:02Z</time>
      </trkpt>
      <trkpt lat="45.2356410" lon="-92.8200360">
        <ele>315.4500000</ele>
        <time>2009-06-14T15:36:03Z</time>
      </trkpt>
      <trkpt lat="45.2402010" lon="-92.8198610">
        <ele>310.1600000</ele>
        <time>2009-06-14T15:36:24Z</time>
      </trkpt>
      <trkpt lat="45.2414440" lon="-92.8193510">
        <ele>311.1200000</ele>
        <time>2009-06-14T15:36:30Z</time>
      </trkpt>
      <trkpt lat="45.2432900" lon="-92.8175530">
        <ele>315.9300000</ele>
        <time>2009-06-14T15:36:40Z</time>
      </trkpt>
      <trkpt lat="45.2476610" lon="-92.8132610">
        <ele>323.6200000</ele>
        <time>2009-06-14T15:37:04Z</time>
      </trkpt>
      <trkpt lat="45.2497300" lon="-92.8110190">
        <ele>321.7000000</ele>
        <time>2009-06-14T15:37:16Z</time>
      </trkpt>
      <trkpt lat="45.2498340" lon="-92.8107970">
        <ele>321.2200000</ele>
        <time>2009-06-14T15:37:17Z</time>
      </trkpt>
      <trkpt lat="45.2499310" lon="-92.8105640">
        <ele>320.7400000</ele>
        <time>2009-06-14T15:37:18Z</time>
      </trkpt>
      <trkpt lat="45.2500070" lon="-92.8103340">
        <ele>320.2600000</ele>
        <time>2009-06-14T15:37:19Z</time>
      </trkpt>
      <trkpt lat="45.2500630" lon="-92.8100870">
        <ele>320.2600000</ele>
        <time>2009-06-14T15:37:20Z</time>
      </trkpt>
      <trkpt lat="45.2501190" lon="-92.8098430">
        <ele>319.7800000</ele>
        <time>2009-06-14T15:37:21Z</time>
      </trkpt>
      <trkpt lat="45.2507030" lon="-92.8076700">
        <ele>314.9700000</ele>
        <time>2009-06-14T15:37:31Z</time>
      </trkpt>
      <trkpt lat="45.2507990" lon="-92.8075210">
        <ele>314.0100000</ele>
        <time>2009-06-14T15:37:32Z</time>
      </trkpt>
      <trkpt lat="45.2508920" lon="-92.8073880">
        <ele>313.5300000</ele>
        <time>2009-06-14T15:37:33Z</time>
      </trkpt>
      <trkpt lat="45.2510190" lon="-92.8072930">
        <ele>313.5300000</ele>
        <time>2009-06-14T15:37:34Z</time>
      </trkpt>
      <trkpt lat="45.2511460" lon="-92.8071980">
        <ele>313.0500000</ele>
        <time>2009-06-14T15:37:35Z</time>
      </trkpt>
      <trkpt lat="45.2512270" lon="-92.8071370">
        <ele>313.0500000</ele>
        <time>2009-06-14T15:37:36Z</time>
      </trkpt>
      <trkpt lat="45.2513850" lon="-92.8070740">
        <ele>313.0500000</ele>
        <time>2009-06-14T15:37:37Z</time>
      </trkpt>
      <trkpt lat="45.2515070" lon="-92.8070250">
        <ele>313.0500000</ele>
        <time>2009-06-14T15:37:38Z</time>
      </trkpt>
      <trkpt lat="45.2521850" lon="-92.8067620">
        <ele>316.8900000</ele>
        <time>2009-06-14T15:37:46Z</time>
      </trkpt>
      <trkpt lat="45.2526490" lon="-92.8065910">
        <ele>322.6600000</ele>
        <time>2009-06-14T15:37:56Z</time>
      </trkpt>
      <trkpt lat="45.2531930" lon="-92.8063810">
        <ele>330.3500000</ele>
        <time>2009-06-14T15:38:09Z</time>
      </trkpt>
      <trkpt lat="45.2536640" lon="-92.8060310">
        <ele>331.7900000</ele>
        <time>2009-06-14T15:38:22Z</time>
      </trkpt>
      <trkpt lat="45.2546370" lon="-92.8052060">
        <ele>332.2700000</ele>
        <time>2009-06-14T15:38:33Z</time>
      </trkpt>
      <trkpt lat="45.2552810" lon="-92.8046600">
        <ele>331.3100000</ele>
        <time>2009-06-14T15:38:42Z</time>
      </trkpt>
      <trkpt lat="45.2553130" lon="-92.8046340">
        <ele>330.3500000</ele>
        <time>2009-06-14T15:38:50Z</time>
      </trkpt>
      <trkpt lat="45.2554610" lon="-92.8045140">
        <ele>329.8700000</ele>
        <time>2009-06-14T15:39:03Z</time>
      </trkpt>
      <trkpt lat="45.2556220" lon="-92.8044160">
        <ele>329.3900000</ele>
        <time>2009-06-14T15:39:17Z</time>
      </trkpt>
      <trkpt lat="45.2557450" lon="-92.8043810">
        <ele>326.9900000</ele>
        <time>2009-06-14T15:39:29Z</time>
      </trkpt>
      <trkpt lat="45.2561080" lon="-92.8043470">
        <ele>324.1000000</ele>
        <time>2009-06-14T15:39:35Z</time>
      </trkpt>
      <trkpt lat="45.2574410" lon="-92.8043470">
        <ele>322.6600000</ele>
        <time>2009-06-14T15:39:47Z</time>
      </trkpt>
      <trkpt lat="45.2585490" lon="-92.8047620">
        <ele>321.2200000</ele>
        <time>2009-06-14T15:39:57Z</time>
      </trkpt>
      <trkpt lat="45.2602620" lon="-92.8054570">
        <ele>322.6600000</ele>
        <time>2009-06-14T15:40:11Z</time>
      </trkpt>
      <trkpt lat="45.2615450" lon="-92.8052740">
        <ele>325.0600000</ele>
        <time>2009-06-14T15:40:20Z</time>
      </trkpt>
      <trkpt lat="45.2632690" lon="-92.8046890">
        <ele>326.0200000</ele>
        <time>2009-06-14T15:40:30Z</time>
      </trkpt>
      <trkpt lat="45.2649900" lon="-92.8035740">
        <ele>325.5400000</ele>
        <time>2009-06-14T15:40:39Z</time>
      </trkpt>
      <trkpt lat="45.2673530" lon="-92.8021310">
        <ele>319.7800000</ele>
        <time>2009-06-14T15:40:51Z</time>
      </trkpt>
      <trkpt lat="45.2691810" lon="-92.8021370">
        <ele>316.4100000</ele>
        <time>2009-06-14T15:40:59Z</time>
      </trkpt>
      <trkpt lat="45.2740470" lon="-92.8021170">
        <ele>316.4100000</ele>
        <time>2009-06-14T15:41:20Z</time>
      </trkpt>
      <trkpt lat="45.2753630" lon="-92.8014790">
        <ele>315.4500000</ele>
        <time>2009-06-14T15:41:26Z</time>
      </trkpt>
      <trkpt lat="45.2791300" lon="-92.7994480">
        <ele>312.0900000</ele>
        <time>2009-06-14T15:41:44Z</time>
      </trkpt>
      <trkpt lat="45.2805510" lon="-92.7995140">
        <ele>314.0100000</ele>
        <time>2009-06-14T15:41:51Z</time>
      </trkpt>
      <trkpt lat="45.2827560" lon="-92.7997090">
        <ele>309.2000000</ele>
        <time>2009-06-14T15:42:01Z</time>
      </trkpt>
      <trkpt lat="45.2874570" lon="-92.7996860">
        <ele>316.4100000</ele>
        <time>2009-06-14T15:42:21Z</time>
      </trkpt>
      <trkpt lat="45.2919680" lon="-92.7999650">
        <ele>308.7200000</ele>
        <time>2009-06-14T15:42:40Z</time>
      </trkpt>
      <trkpt lat="45.2936150" lon="-92.8009580">
        <ele>298.1500000</ele>
        <time>2009-06-14T15:42:48Z</time>
      </trkpt>
      <trkpt lat="45.2962830" lon="-92.8027560">
        <ele>292.3800000</ele>
        <time>2009-06-14T15:43:02Z</time>
      </trkpt>
      <trkpt lat="45.2985990" lon="-92.8039110">
        <ele>288.0500000</ele>
        <time>2009-06-14T15:43:14Z</time>
      </trkpt>
      <trkpt lat="45.3009340" lon="-92.8045280">
        <ele>285.6500000</ele>
        <time>2009-06-14T15:43:27Z</time>
      </trkpt>
      <trkpt lat="45.3027690" lon="-92.8046210">
        <ele>283.7300000</ele>
        <time>2009-06-14T15:43:37Z</time>
      </trkpt>
      <trkpt lat="45.3057290" lon="-92.8045100">
        <ele>282.7700000</ele>
        <time>2009-06-14T15:43:53Z</time>
      </trkpt>
      <trkpt lat="45.3078290" lon="-92.8044230">
        <ele>280.3600000</ele>
        <time>2009-06-14T15:44:06Z</time>
      </trkpt>
      <trkpt lat="45.3097950" lon="-92.8043410">
        <ele>278.9200000</ele>
        <time>2009-06-14T15:44:20Z</time>
      </trkpt>
      <trkpt lat="45.3110820" lon="-92.8042930">
        <ele>279.8800000</ele>
        <time>2009-06-14T15:44:29Z</time>
      </trkpt>
      <trkpt lat="45.3131430" lon="-92.8042390">
        <ele>287.5700000</ele>
        <time>2009-06-14T15:44:39Z</time>
      </trkpt>
      <trkpt lat="45.3159700" lon="-92.8041650">
        <ele>288.5300000</ele>
        <time>2009-06-14T15:44:53Z</time>
      </trkpt>
      <trkpt lat="45.3186300" lon="-92.8043770">
        <ele>288.0500000</ele>
        <time>2009-06-14T15:45:07Z</time>
      </trkpt>
      <trkpt lat="45.3208790" lon="-92.8049870">
        <ele>288.0500000</ele>
        <time>2009-06-14T15:45:18Z</time>
      </trkpt>
      <trkpt lat="45.3223230" lon="-92.8045680">
        <ele>289.0100000</ele>
        <time>2009-06-14T15:45:25Z</time>
      </trkpt>
      <trkpt lat="45.3243830" lon="-92.8039460">
        <ele>292.8600000</ele>
        <time>2009-06-14T15:45:35Z</time>
      </trkpt>
      <trkpt lat="45.3278530" lon="-92.8039390">
        <ele>289.4900000</ele>
        <time>2009-06-14T15:45:51Z</time>
      </trkpt>
      <trkpt lat="45.3320220" lon="-92.8040670">
        <ele>292.3800000</ele>
        <time>2009-06-14T15:46:10Z</time>
      </trkpt>
      <trkpt lat="45.3332170" lon="-92.8048410">
        <ele>292.3800000</ele>
        <time>2009-06-14T15:46:16Z</time>
      </trkpt>
      <trkpt lat="45.3340750" lon="-92.8062190">
        <ele>293.8200000</ele>
        <time>2009-06-14T15:46:22Z</time>
      </trkpt>
      <trkpt lat="45.3358300" lon="-92.8099150">
        <ele>296.7000000</ele>
        <time>2009-06-14T15:46:37Z</time>
      </trkpt>
      <trkpt lat="45.3370170" lon="-92.8115740">
        <ele>296.2200000</ele>
        <time>2009-06-14T15:46:45Z</time>
      </trkpt>
      <trkpt lat="45.3394630" lon="-92.8143050">
        <ele>292.3800000</ele>
        <time>2009-06-14T15:47:00Z</time>
      </trkpt>
      <trkpt lat="45.3407360" lon="-92.8146560">
        <ele>289.9700000</ele>
        <time>2009-06-14T15:47:07Z</time>
      </trkpt>
      <trkpt lat="45.3441270" lon="-92.8151580">
        <ele>290.9400000</ele>
        <time>2009-06-14T15:47:25Z</time>
      </trkpt>
      <trkpt lat="45.3454140" lon="-92.8160760">
        <ele>287.5700000</ele>
        <time>2009-06-14T15:47:32Z</time>
      </trkpt>
      <trkpt lat="45.3491650" lon="-92.8194400">
        <ele>292.3800000</ele>
        <time>2009-06-14T15:47:54Z</time>
      </trkpt>
      <trkpt lat="45.3502110" lon="-92.8207760">
        <ele>289.0100000</ele>
        <time>2009-06-14T15:48:02Z</time>
      </trkpt>
      <trkpt lat="45.3504330" lon="-92.8210890">
        <ele>286.6100000</ele>
        <time>2009-06-14T15:48:07Z</time>
      </trkpt>
      <trkpt lat="45.3504710" lon="-92.8211430">
        <ele>286.1300000</ele>
        <time>2009-06-14T15:48:18Z</time>
      </trkpt>
      <trkpt lat="45.3505410" lon="-92.8212390">
        <ele>285.1700000</ele>
        <time>2009-06-14T15:48:42Z</time>
      </trkpt>
      <trkpt lat="45.3505550" lon="-92.8212590">
        <ele>285.1700000</ele>
        <time>2009-06-14T15:48:43Z</time>
      </trkpt>
      <trkpt lat="45.3505650" lon="-92.8212730">
        <ele>285.1700000</ele>
        <time>2009-06-14T15:48:44Z</time>
      </trkpt>
      <trkpt lat="45.3504370" lon="-92.8213330">
        <ele>285.1700000</ele>
        <time>2009-06-14T15:48:45Z</time>
      </trkpt>
      <trkpt lat="45.3504000" lon="-92.8214500">
        <ele>285.1700000</ele>
        <time>2009-06-14T15:48:46Z</time>
      </trkpt>
      <trkpt lat="45.3503570" lon="-92.8215830">
        <ele>284.6900000</ele>
        <time>2009-06-14T15:48:47Z</time>
      </trkpt>
      <trkpt lat="45.3499880" lon="-92.8227740">
        <ele>282.7700000</ele>
        <time>2009-06-14T15:48:53Z</time>
      </trkpt>
      <trkpt lat="45.3494020" lon="-92.8255530">
        <ele>289.9700000</ele>
        <time>2009-06-14T15:49:03Z</time>
      </trkpt>
      <trkpt lat="45.3486290" lon="-92.8292200">
        <ele>289.0100000</ele>
        <time>2009-06-14T15:49:15Z</time>
      </trkpt>
      <trkpt lat="45.3484100" lon="-92.8315180">
        <ele>288.5300000</ele>
        <time>2009-06-14T15:49:23Z</time>
      </trkpt>
      <trkpt lat="45.3485370" lon="-92.8334460">
        <ele>286.6100000</ele>
        <time>2009-06-14T15:49:31Z</time>
      </trkpt>
      <trkpt lat="45.3486020" lon="-92.8347280">
        <ele>285.1700000</ele>
        <time>2009-06-14T15:49:39Z</time>
      </trkpt>
      <trkpt lat="45.3484740" lon="-92.8353920">
        <ele>283.2500000</ele>
        <time>2009-06-14T15:49:48Z</time>
      </trkpt>
      <trkpt lat="45.3484180" lon="-92.8356340">
        <ele>282.7700000</ele>
        <time>2009-06-14T15:49:52Z</time>
      </trkpt>
      <trkpt lat="45.3483970" lon="-92.8357070">
        <ele>282.7700000</ele>
        <time>2009-06-14T15:49:53Z</time>
      </trkpt>
      <trkpt lat="45.3483130" lon="-92.8355880">
        <ele>282.2800000</ele>
        <time>2009-06-14T15:49:54Z</time>
      </trkpt>
      <trkpt lat="45.3482270" lon="-92.8355860">
        <ele>282.2800000</ele>
        <time>2009-06-14T15:49:55Z</time>
      </trkpt>
      <trkpt lat="45.3481300" lon="-92.8355850">
        <ele>282.2800000</ele>
        <time>2009-06-14T15:49:56Z</time>
      </trkpt>
      <trkpt lat="45.3470080" lon="-92.8355650">
        <ele>283.2500000</ele>
        <time>2009-06-14T15:50:05Z</time>
      </trkpt>
      <trkpt lat="45.3448390" lon="-92.8355290">
        <ele>285.1700000</ele>
        <time>2009-06-14T15:50:18Z</time>
      </trkpt>
      <trkpt lat="45.3418960" lon="-92.8354790">
        <ele>291.9000000</ele>
        <time>2009-06-14T15:50:35Z</time>
      </trkpt>
      <trkpt lat="45.3390770" lon="-92.8354310">
        <ele>295.2600000</ele>
        <time>2009-06-14T15:50:51Z</time>
      </trkpt>
      <trkpt lat="45.3369800" lon="-92.8353960">
        <ele>295.7400000</ele>
        <time>2009-06-14T15:51:04Z</time>
      </trkpt>
      <trkpt lat="45.3357520" lon="-92.8353750">
        <ele>293.8200000</ele>
        <time>2009-06-14T15:51:13Z</time>
      </trkpt>
      <trkpt lat="45.3343360" lon="-92.8353750">
        <ele>290.9400000</ele>
        <time>2009-06-14T15:51:24Z</time>
      </trkpt>
      <trkpt lat="45.3315240" lon="-92.8353750">
        <ele>287.0900000</ele>
        <time>2009-06-14T15:51:41Z</time>
      </trkpt>
      <trkpt lat="45.3289130" lon="-92.8354140">
        <ele>286.1300000</ele>
        <time>2009-06-14T15:51:56Z</time>
      </trkpt>
      <trkpt lat="45.3287390" lon="-92.8354880">
        <ele>286.6100000</ele>
        <time>2009-06-14T15:51:57Z</time>
      </trkpt>
      <trkpt lat="45.3285600" lon="-92.8355900">
        <ele>286.6100000</ele>
        <time>2009-06-14T15:51:58Z</time>
      </trkpt>
      <trkpt lat="45.3284050" lon="-92.8357420">
        <ele>286.6100000</ele>
        <time>2009-06-14T15:51:59Z</time>
      </trkpt>
      <trkpt lat="45.3282450" lon="-92.8358990">
        <ele>286.6100000</ele>
        <time>2009-06-14T15:52:00Z</time>
      </trkpt>
      <trkpt lat="45.3261620" lon="-92.8379400">
        <ele>284.6900000</ele>
        <time>2009-06-14T15:52:14Z</time>
      </trkpt>
      <trkpt lat="45.3239190" lon="-92.8399940">
        <ele>292.3800000</ele>
        <time>2009-06-14T15:52:28Z</time>
      </trkpt>
      <trkpt lat="45.3237500" lon="-92.8400970">
        <ele>292.8600000</ele>
        <time>2009-06-14T15:52:29Z</time>
      </trkpt>
      <trkpt lat="45.3235590" lon="-92.8401450">
        <ele>293.3400000</ele>
        <time>2009-06-14T15:52:30Z</time>
      </trkpt>
      <trkpt lat="45.3233670" lon="-92.8401920">
        <ele>292.8600000</ele>
        <time>2009-06-14T15:52:31Z</time>
      </trkpt>
      <trkpt lat="45.3224380" lon="-92.8404720">
        <ele>292.3800000</ele>
        <time>2009-06-14T15:52:36Z</time>
      </trkpt>
      <trkpt lat="45.3222660" lon="-92.8405870">
        <ele>292.3800000</ele>
        <time>2009-06-14T15:52:37Z</time>
      </trkpt>
      <trkpt lat="45.3221050" lon="-92.8407290">
        <ele>291.9000000</ele>
        <time>2009-06-14T15:52:38Z</time>
      </trkpt>
      <trkpt lat="45.3219590" lon="-92.8409080">
        <ele>291.9000000</ele>
        <time>2009-06-14T15:52:39Z</time>
      </trkpt>
      <trkpt lat="45.3218110" lon="-92.8410890">
        <ele>291.9000000</ele>
        <time>2009-06-14T15:52:40Z</time>
      </trkpt>
      <trkpt lat="45.3197570" lon="-92.8436120">
        <ele>290.4600000</ele>
        <time>2009-06-14T15:52:54Z</time>
      </trkpt>
      <trkpt lat="45.3182270" lon="-92.8451850">
        <ele>290.9400000</ele>
        <time>2009-06-14T15:53:05Z</time>
      </trkpt>
      <trkpt lat="45.3180770" lon="-92.8452710">
        <ele>291.9000000</ele>
        <time>2009-06-14T15:53:06Z</time>
      </trkpt>
      <trkpt lat="45.3179830" lon="-92.8452880">
        <ele>292.3800000</ele>
        <time>2009-06-14T15:53:07Z</time>
      </trkpt>
      <trkpt lat="45.3178240" lon="-92.8452860">
        <ele>291.4200000</ele>
        <time>2009-06-14T15:53:08Z</time>
      </trkpt>
      <trkpt lat="45.3176670" lon="-92.8452840">
        <ele>290.4600000</ele>
        <time>2009-06-14T15:53:09Z</time>
      </trkpt>
      <trkpt lat="45.3175130" lon="-92.8452820">
        <ele>290.4600000</ele>
        <time>2009-06-14T15:53:10Z</time>
      </trkpt>
      <trkpt lat="45.3154250" lon="-92.8452570">
        <ele>289.9700000</ele>
        <time>2009-06-14T15:53:23Z</time>
      </trkpt>
      <trkpt lat="45.3125910" lon="-92.8452020">
        <ele>290.4600000</ele>
        <time>2009-06-14T15:53:39Z</time>
      </trkpt>
      <trkpt lat="45.3096330" lon="-92.8451600">
        <ele>290.9400000</ele>
        <time>2009-06-14T15:53:54Z</time>
      </trkpt>
      <trkpt lat="45.3065980" lon="-92.8453770">
        <ele>290.9400000</ele>
        <time>2009-06-14T15:54:09Z</time>
      </trkpt>
      <trkpt lat="45.3037070" lon="-92.8455800">
        <ele>289.0100000</ele>
        <time>2009-06-14T15:54:24Z</time>
      </trkpt>
      <trkpt lat="45.3025040" lon="-92.8456640">
        <ele>287.5700000</ele>
        <time>2009-06-14T15:54:32Z</time>
      </trkpt>
      <trkpt lat="45.3004500" lon="-92.8458090">
        <ele>286.1300000</ele>
        <time>2009-06-14T15:54:47Z</time>
      </trkpt>
      <trkpt lat="45.2980620" lon="-92.8459760">
        <ele>286.6100000</ele>
        <time>2009-06-14T15:55:02Z</time>
      </trkpt>
      <trkpt lat="45.2954420" lon="-92.8460580">
        <ele>289.4900000</ele>
        <time>2009-06-14T15:55:18Z</time>
      </trkpt>
      <trkpt lat="45.2931600" lon="-92.8459280">
        <ele>288.0500000</ele>
        <time>2009-06-14T15:55:32Z</time>
      </trkpt>
      <trkpt lat="45.2906370" lon="-92.8457040">
        <ele>289.0100000</ele>
        <time>2009-06-14T15:55:49Z</time>
      </trkpt>
      <trkpt lat="45.2905060" lon="-92.8456030">
        <ele>289.0100000</ele>
        <time>2009-06-14T15:55:50Z</time>
      </trkpt>
      <trkpt lat="45.2903670" lon="-92.8454950">
        <ele>288.5300000</ele>
        <time>2009-06-14T15:55:51Z</time>
      </trkpt>
      <trkpt lat="45.2902740" lon="-92.8453790">
        <ele>288.0500000</ele>
        <time>2009-06-14T15:55:52Z</time>
      </trkpt>
      <trkpt lat="45.2901940" lon="-92.8452450">
        <ele>288.5300000</ele>
        <time>2009-06-14T15:55:53Z</time>
      </trkpt>
      <trkpt lat="45.2901940" lon="-92.8452450">
        <ele>288.0500000</ele>
        <time>2009-06-14T15:55:54Z</time>
      </trkpt>
      <trkpt lat="45.2901940" lon="-92.8452450">
        <ele>287.5700000</ele>
        <time>2009-06-14T15:55:55Z</time>
      </trkpt>
      <trkpt lat="45.2901510" lon="-92.8446710">
        <ele>288.5300000</ele>
        <time>2009-06-14T15:55:56Z</time>
      </trkpt>
      <trkpt lat="45.2901510" lon="-92.8444420">
        <ele>289.0100000</ele>
        <time>2009-06-14T15:55:57Z</time>
      </trkpt>
      <trkpt lat="45.2901510" lon="-92.8442220">
        <ele>289.0100000</ele>
        <time>2009-06-14T15:55:58Z</time>
      </trkpt>
      <trkpt lat="45.2901420" lon="-92.8420620">
        <ele>289.0100000</ele>
        <time>2009-06-14T15:56:08Z</time>
      </trkpt>
      <trkpt lat="45.2901210" lon="-92.8418510">
        <ele>289.0100000</ele>
        <time>2009-06-14T15:56:09Z</time>
      </trkpt>
      <trkpt lat="45.2900690" lon="-92.8416480">
        <ele>289.4900000</ele>
        <time>2009-06-14T15:56:10Z</time>
      </trkpt>
      <trkpt lat="45.2900220" lon="-92.8415550">
        <ele>289.4900000</ele>
        <time>2009-06-14T15:56:11Z</time>
      </trkpt>
      <trkpt lat="45.2898530" lon="-92.8413980">
        <ele>289.4900000</ele>
        <time>2009-06-14T15:56:12Z</time>
      </trkpt>
      <trkpt lat="45.2897370" lon="-92.8412900">
        <ele>289.4900000</ele>
        <time>2009-06-14T15:56:13Z</time>
      </trkpt>
      <trkpt lat="45.2896250" lon="-92.8411860">
        <ele>289.4900000</ele>
        <time>2009-06-14T15:56:14Z</time>
      </trkpt>
      <trkpt lat="45.2881010" lon="-92.8397730">
        <ele>286.6100000</ele>
        <time>2009-06-14T15:56:27Z</time>
      </trkpt>
      <trkpt lat="45.2858770" lon="-92.8377100">
        <ele>287.5700000</ele>
        <time>2009-06-14T15:56:43Z</time>
      </trkpt>
      <trkpt lat="45.2837020" lon="-92.8356920">
        <ele>290.4600000</ele>
        <time>2009-06-14T15:56:59Z</time>
      </trkpt>
      <trkpt lat="45.2831810" lon="-92.8353130">
        <ele>292.3800000</ele>
        <time>2009-06-14T15:57:03Z</time>
      </trkpt>
      <trkpt lat="45.2830470" lon="-92.8352440">
        <ele>292.8600000</ele>
        <time>2009-06-14T15:57:04Z</time>
      </trkpt>
      <trkpt lat="45.2828970" lon="-92.8352330">
        <ele>292.8600000</ele>
        <time>2009-06-14T15:57:05Z</time>
      </trkpt>
      <trkpt lat="45.2827410" lon="-92.8352220">
        <ele>292.8600000</ele>
        <time>2009-06-14T15:57:06Z</time>
      </trkpt>
      <trkpt lat="45.2825810" lon="-92.8352100">
        <ele>292.8600000</ele>
        <time>2009-06-14T15:57:07Z</time>
      </trkpt>
      <trkpt lat="45.2795360" lon="-92.8350470">
        <ele>291.4200000</ele>
        <time>2009-06-14T15:57:25Z</time>
      </trkpt>
      <trkpt lat="45.2765800" lon="-92.8349060">
        <ele>292.3800000</ele>
        <time>2009-06-14T15:57:42Z</time>
      </trkpt>
      <trkpt lat="45.2739240" lon="-92.8347800">
        <ele>296.7000000</ele>
        <time>2009-06-14T15:57:57Z</time>
      </trkpt>
      <trkpt lat="45.2726920" lon="-92.8347210">
        <ele>297.1800000</ele>
        <time>2009-06-14T15:58:05Z</time>
      </trkpt>
      <trkpt lat="45.2724300" lon="-92.8347090">
        <ele>297.1800000</ele>
        <time>2009-06-14T15:58:11Z</time>
      </trkpt>
      <trkpt lat="45.2720450" lon="-92.8346900">
        <ele>297.6700000</ele>
        <time>2009-06-14T15:58:25Z</time>
      </trkpt>
      <trkpt lat="45.2720090" lon="-92.8346890">
        <ele>298.1500000</ele>
        <time>2009-06-14T15:58:26Z</time>
      </trkpt>
      <trkpt lat="45.2719980" lon="-92.8346880">
        <ele>298.1500000</ele>
        <time>2009-06-14T15:58:27Z</time>
      </trkpt>
      <trkpt lat="45.2719860" lon="-92.8345640">
        <ele>298.1500000</ele>
        <time>2009-06-14T15:58:28Z</time>
      </trkpt>
      <trkpt lat="45.2719730" lon="-92.8344330">
        <ele>298.1500000</ele>
        <time>2009-06-14T15:58:29Z</time>
      </trkpt>
      <trkpt lat="45.2719590" lon="-92.8342840">
        <ele>298.1500000</ele>
        <time>2009-06-14T15:58:30Z</time>
      </trkpt>
      <trkpt lat="45.2719420" lon="-92.8341180">
        <ele>298.6300000</ele>
        <time>2009-06-14T15:58:31Z</time>
      </trkpt>
      <trkpt lat="45.2717630" lon="-92.8322730">
        <ele>301.0300000</ele>
        <time>2009-06-14T15:58:40Z</time>
      </trkpt>
      <trkpt lat="45.2712790" lon="-92.8300380">
        <ele>303.9100000</ele>
        <time>2009-06-14T15:58:50Z</time>
      </trkpt>
      <trkpt lat="45.2700900" lon="-92.8267340">
        <ele>306.8000000</ele>
        <time>2009-06-14T15:59:04Z</time>
      </trkpt>
      <trkpt lat="45.2689810" lon="-92.8245840">
        <ele>307.7600000</ele>
        <time>2009-06-14T15:59:14Z</time>
      </trkpt>
      <trkpt lat="45.2657940" lon="-92.8198460">
        <ele>314.0100000</ele>
        <time>2009-06-14T15:59:39Z</time>
      </trkpt>
      <trkpt lat="45.2636160" lon="-92.8170620">
        <ele>317.3700000</ele>
        <time>2009-06-14T15:59:55Z</time>
      </trkpt>
      <trkpt lat="45.2621690" lon="-92.8154780">
        <ele>313.5300000</ele>
        <time>2009-06-14T16:00:06Z</time>
      </trkpt>
      <trkpt lat="45.2597990" lon="-92.8130750">
        <ele>310.6400000</ele>
        <time>2009-06-14T16:00:23Z</time>
      </trkpt>
      <trkpt lat="45.2581050" lon="-92.8113600">
        <ele>315.9300000</ele>
        <time>2009-06-14T16:00:37Z</time>
      </trkpt>
      <trkpt lat="45.2572420" lon="-92.8104550">
        <ele>317.3700000</ele>
        <time>2009-06-14T16:00:47Z</time>
      </trkpt>
      <trkpt lat="45.2571820" lon="-92.8103920">
        <ele>317.8500000</ele>
        <time>2009-06-14T16:00:54Z</time>
      </trkpt>
      <trkpt lat="45.2568630" lon="-92.8101500">
        <ele>316.8900000</ele>
        <time>2009-06-14T16:01:01Z</time>
      </trkpt>
      <trkpt lat="45.2568290" lon="-92.8101270">
        <ele>316.8900000</ele>
        <time>2009-06-14T16:01:02Z</time>
      </trkpt>
      <trkpt lat="45.2568020" lon="-92.8101090">
        <ele>316.8900000</ele>
        <time>2009-06-14T16:01:03Z</time>
      </trkpt>
      <trkpt lat="45.2567200" lon="-92.8102690">
        <ele>316.8900000</ele>
        <time>2009-06-14T16:01:04Z</time>
      </trkpt>
      <trkpt lat="45.2567200" lon="-92.8103790">
        <ele>316.4100000</ele>
        <time>2009-06-14T16:01:05Z</time>
      </trkpt>
      <trkpt lat="45.2567200" lon="-92.8105100">
        <ele>316.4100000</ele>
        <time>2009-06-14T16:01:06Z</time>
      </trkpt>
      <trkpt lat="45.2567200" lon="-92.8106560">
        <ele>316.8900000</ele>
        <time>2009-06-14T16:01:07Z</time>
      </trkpt>
      <trkpt lat="45.2567200" lon="-92.8108210">
        <ele>317.8500000</ele>
        <time>2009-06-14T16:01:08Z</time>
      </trkpt>
      <trkpt lat="45.2567000" lon="-92.8121620">
        <ele>319.3000000</ele>
        <time>2009-06-14T16:01:14Z</time>
      </trkpt>
      <trkpt lat="45.2566170" lon="-92.8151400">
        <ele>311.6000000</ele>
        <time>2009-06-14T16:01:24Z</time>
      </trkpt>
      <trkpt lat="45.2565480" lon="-92.8203870">
        <ele>307.2800000</ele>
        <time>2009-06-14T16:01:41Z</time>
      </trkpt>
      <trkpt lat="45.2565480" lon="-92.8252300">
        <ele>319.3000000</ele>
        <time>2009-06-14T16:01:57Z</time>
      </trkpt>
      <trkpt lat="45.2565480" lon="-92.8294050">
        <ele>319.7800000</ele>
        <time>2009-06-14T16:02:13Z</time>
      </trkpt>
      <trkpt lat="45.2565480" lon="-92.8324800">
        <ele>321.2200000</ele>
        <time>2009-06-14T16:02:25Z</time>
      </trkpt>
      <trkpt lat="45.2565960" lon="-92.8379980">
        <ele>314.9700000</ele>
        <time>2009-06-14T16:02:45Z</time>
      </trkpt>
      <trkpt lat="45.2566410" lon="-92.8420110">
        <ele>314.4900000</ele>
        <time>2009-06-14T16:02:59Z</time>
      </trkpt>
      <trkpt lat="45.2567090" lon="-92.8481210">
        <ele>312.0900000</ele>
        <time>2009-06-14T16:03:20Z</time>
      </trkpt>
      <trkpt lat="45.2565160" lon="-92.8516080">
        <ele>316.8900000</ele>
        <time>2009-06-14T16:03:32Z</time>
      </trkpt>
      <trkpt lat="45.2559330" lon="-92.8541240">
        <ele>310.6400000</ele>
        <time>2009-06-14T16:03:42Z</time>
      </trkpt>
      <trkpt lat="45.2550350" lon="-92.8568950">
        <ele>297.1800000</ele>
        <time>2009-06-14T16:03:56Z</time>
      </trkpt>
      <trkpt lat="45.2548710" lon="-92.8573810">
        <ele>297.1800000</ele>
        <time>2009-06-14T16:04:02Z</time>
      </trkpt>
      <trkpt lat="45.2545680" lon="-92.8582830">
        <ele>298.6300000</ele>
        <time>2009-06-14T16:04:10Z</time>
      </trkpt>
      <trkpt lat="45.2542140" lon="-92.8593330">
        <ele>299.5900000</ele>
        <time>2009-06-14T16:04:19Z</time>
      </trkpt>
      <trkpt lat="45.2539940" lon="-92.8601020">
        <ele>300.5500000</ele>
        <time>2009-06-14T16:04:31Z</time>
      </trkpt>
      <trkpt lat="45.2538920" lon="-92.8605290">
        <ele>300.0700000</ele>
        <time>2009-06-14T16:04:38Z</time>
      </trkpt>
      <trkpt lat="45.2536610" lon="-92.8615100">
        <ele>299.5900000</ele>
        <time>2009-06-14T16:04:49Z</time>
      </trkpt>
      <trkpt lat="45.2536410" lon="-92.8615940">
        <ele>299.5900000</ele>
        <time>2009-06-14T16:04:50Z</time>
      </trkpt>
      <trkpt lat="45.2536280" lon="-92.8616540">
        <ele>299.1100000</ele>
        <time>2009-06-14T16:04:51Z</time>
      </trkpt>
      <trkpt lat="45.2536300" lon="-92.8616390">
        <ele>299.1100000</ele>
        <time>2009-06-14T16:04:52Z</time>
      </trkpt>
      <trkpt lat="45.2534750" lon="-92.8614920">
        <ele>300.0700000</ele>
        <time>2009-06-14T16:04:53Z</time>
      </trkpt>
      <trkpt lat="45.2534110" lon="-92.8614310">
        <ele>299.5900000</ele>
        <time>2009-06-14T16:04:54Z</time>
      </trkpt>
      <trkpt lat="45.2533380" lon="-92.8613610">
        <ele>299.1100000</ele>
        <time>2009-06-14T16:04:55Z</time>
      </trkpt>
      <trkpt lat="45.2524040" lon="-92.8606240">
        <ele>298.1500000</ele>
        <time>2009-06-14T16:05:04Z</time>
      </trkpt>
      <trkpt lat="45.2509210" lon="-92.8598210">
        <ele>300.0700000</ele>
        <time>2009-06-14T16:05:17Z</time>
      </trkpt>
      <trkpt lat="45.2501540" lon="-92.8592360">
        <ele>300.5500000</ele>
        <time>2009-06-14T16:05:25Z</time>
      </trkpt>
      <trkpt lat="45.2500290" lon="-92.8589440">
        <ele>300.0700000</ele>
        <time>2009-06-14T16:05:26Z</time>
      </trkpt>
      <trkpt lat="45.2499620" lon="-92.8587880">
        <ele>299.5900000</ele>
        <time>2009-06-14T16:05:27Z</time>
      </trkpt>
      <trkpt lat="45.2490460" lon="-92.8564970">
        <ele>301.9900000</ele>
        <time>2009-06-14T16:05:42Z</time>
      </trkpt>
      <trkpt lat="45.2486400" lon="-92.8546540">
        <ele>300.5500000</ele>
        <time>2009-06-14T16:05:53Z</time>
      </trkpt>
      <trkpt lat="45.2487110" lon="-92.8536090">
        <ele>300.0700000</ele>
        <time>2009-06-14T16:05:59Z</time>
      </trkpt>
      <trkpt lat="45.2487600" lon="-92.8534610">
        <ele>300.0700000</ele>
        <time>2009-06-14T16:06:00Z</time>
      </trkpt>
      <trkpt lat="45.2488350" lon="-92.8533080">
        <ele>300.5500000</ele>
        <time>2009-06-14T16:06:01Z</time>
      </trkpt>
      <trkpt lat="45.2489250" lon="-92.8531700">
        <ele>301.0300000</ele>
        <time>2009-06-14T16:06:02Z</time>
      </trkpt>
      <trkpt lat="45.2490440" lon="-92.8530500">
        <ele>301.5100000</ele>
        <time>2009-06-14T16:06:03Z</time>
      </trkpt>
      <trkpt lat="45.2491530" lon="-92.8529410">
        <ele>301.5100000</ele>
        <time>2009-06-14T16:06:04Z</time>
      </trkpt>
      <trkpt lat="45.2492800" lon="-92.8528150">
        <ele>301.9900000</ele>
        <time>2009-06-14T16:06:05Z</time>
      </trkpt>
      <trkpt lat="45.2494880" lon="-92.8525570">
        <ele>304.8800000</ele>
        <time>2009-06-14T16:06:07Z</time>
      </trkpt>
      <trkpt lat="45.2495440" lon="-92.8523720">
        <ele>306.3200000</ele>
        <time>2009-06-14T16:06:08Z</time>
      </trkpt>
      <trkpt lat="45.2495950" lon="-92.8522000">
        <ele>306.8000000</ele>
        <time>2009-06-14T16:06:09Z</time>
      </trkpt>
      <trkpt lat="45.2496290" lon="-92.8520360">
        <ele>306.8000000</ele>
        <time>2009-06-14T16:06:10Z</time>
      </trkpt>
      <trkpt lat="45.2496630" lon="-92.8518620">
        <ele>306.8000000</ele>
        <time>2009-06-14T16:06:11Z</time>
      </trkpt>
      <trkpt lat="45.2498020" lon="-92.8513620">
        <ele>308.7200000</ele>
        <time>2009-06-14T16:06:14Z</time>
      </trkpt>
      <trkpt lat="45.2498780" lon="-92.8512410">
        <ele>309.2000000</ele>
        <time>2009-06-14T16:06:15Z</time>
      </trkpt>
      <trkpt lat="45.2499620" lon="-92.8511190">
        <ele>310.1600000</ele>
        <time>2009-06-14T16:06:16Z</time>
      </trkpt>
      <trkpt lat="45.2500730" lon="-92.8509570">
        <ele>311.6000000</ele>
        <time>2009-06-14T16:06:17Z</time>
      </trkpt>
      <trkpt lat="45.2501620" lon="-92.8508260">
        <ele>313.0500000</ele>
        <time>2009-06-14T16:06:18Z</time>
      </trkpt>
      <trkpt lat="45.2502510" lon="-92.8506950">
        <ele>313.5300000</ele>
        <time>2009-06-14T16:06:19Z</time>
      </trkpt>
      <trkpt lat="45.2503420" lon="-92.8505630">
        <ele>314.0100000</ele>
        <time>2009-06-14T16:06:20Z</time>
      </trkpt>
      <trkpt lat="45.2503970" lon="-92.8504120">
        <ele>314.4900000</ele>
        <time>2009-06-14T16:06:21Z</time>
      </trkpt>
      <trkpt lat="45.2504450" lon="-92.8502480">
        <ele>314.9700000</ele>
        <time>2009-06-14T16:06:22Z</time>
      </trkpt>
      <trkpt lat="45.2504930" lon="-92.8500940">
        <ele>315.4500000</ele>
        <time>2009-06-14T16:06:23Z</time>
      </trkpt>
      <trkpt lat="45.2505390" lon="-92.8499490">
        <ele>315.4500000</ele>
        <time>2009-06-14T16:06:24Z</time>
      </trkpt>
      <trkpt lat="45.2508460" lon="-92.8483720">
        <ele>314.4900000</ele>
        <time>2009-06-14T16:06:35Z</time>
      </trkpt>
      <trkpt lat="45.2508340" lon="-92.8473310">
        <ele>311.6000000</ele>
        <time>2009-06-14T16:06:41Z</time>
      </trkpt>
      <trkpt lat="45.2507710" lon="-92.8471730">
        <ele>311.1200000</ele>
        <time>2009-06-14T16:06:42Z</time>
      </trkpt>
      <trkpt lat="45.2507070" lon="-92.8470140">
        <ele>310.1600000</ele>
        <time>2009-06-14T16:06:43Z</time>
      </trkpt>
      <trkpt lat="45.2506260" lon="-92.8468920">
        <ele>309.6800000</ele>
        <time>2009-06-14T16:06:44Z</time>
      </trkpt>
      <trkpt lat="45.2504880" lon="-92.8468040">
        <ele>309.2000000</ele>
        <time>2009-06-14T16:06:45Z</time>
      </trkpt>
      <trkpt lat="45.2503550" lon="-92.8467190">
        <ele>308.7200000</ele>
        <time>2009-06-14T16:06:46Z</time>
      </trkpt>
      <trkpt lat="45.2502200" lon="-92.8466330">
        <ele>307.7600000</ele>
        <time>2009-06-14T16:06:47Z</time>
      </trkpt>
      <trkpt lat="45.2500720" lon="-92.8465770">
        <ele>307.2800000</ele>
        <time>2009-06-14T16:06:48Z</time>
      </trkpt>
      <trkpt lat="45.2491150" lon="-92.8460830">
        <ele>303.9100000</ele>
        <time>2009-06-14T16:06:55Z</time>
      </trkpt>
      <trkpt lat="45.2490370" lon="-92.8459000">
        <ele>303.4300000</ele>
        <time>2009-06-14T16:06:56Z</time>
      </trkpt>
      <trkpt lat="45.2489530" lon="-92.8457050">
        <ele>303.4300000</ele>
        <time>2009-06-14T16:06:57Z</time>
      </trkpt>
      <trkpt lat="45.2488650" lon="-92.8454990">
        <ele>304.8800000</ele>
        <time>2009-06-14T16:06:58Z</time>
      </trkpt>
      <trkpt lat="45.2487760" lon="-92.8452920">
        <ele>306.3200000</ele>
        <time>2009-06-14T16:06:59Z</time>
      </trkpt>
      <trkpt lat="45.2479680" lon="-92.8437300">
        <ele>309.6800000</ele>
        <time>2009-06-14T16:07:08Z</time>
      </trkpt>
      <trkpt lat="45.2478530" lon="-92.8436010">
        <ele>310.1600000</ele>
        <time>2009-06-14T16:07:09Z</time>
      </trkpt>
      <trkpt lat="45.2467310" lon="-92.8428730">
        <ele>314.0100000</ele>
        <time>2009-06-14T16:07:17Z</time>
      </trkpt>
      <trkpt lat="45.2454400" lon="-92.8421680">
        <ele>314.9700000</ele>
        <time>2009-06-14T16:07:26Z</time>
      </trkpt>
      <trkpt lat="45.2438470" lon="-92.8411430">
        <ele>315.9300000</ele>
        <time>2009-06-14T16:07:37Z</time>
      </trkpt>
      <trkpt lat="45.2432810" lon="-92.8407310">
        <ele>311.6000000</ele>
        <time>2009-06-14T16:07:41Z</time>
      </trkpt>
      <trkpt lat="45.2431580" lon="-92.8405670">
        <ele>311.6000000</ele>
        <time>2009-06-14T16:07:42Z</time>
      </trkpt>
      <trkpt lat="45.2430360" lon="-92.8404030">
        <ele>311.6000000</ele>
        <time>2009-06-14T16:07:43Z</time>
      </trkpt>
      <trkpt lat="45.2429150" lon="-92.8402420">
        <ele>310.6400000</ele>
        <time>2009-06-14T16:07:44Z</time>
      </trkpt>
      <trkpt lat="45.2428000" lon="-92.8400720">
        <ele>310.6400000</ele>
        <time>2009-06-14T16:07:45Z</time>
      </trkpt>
      <trkpt lat="45.2414900" lon="-92.8378320">
        <ele>307.2800000</ele>
        <time>2009-06-14T16:07:58Z</time>
      </trkpt>
      <trkpt lat="45.2404610" lon="-92.8363930">
        <ele>307.7600000</ele>
        <time>2009-06-14T16:08:07Z</time>
      </trkpt>
      <trkpt lat="45.2395460" lon="-92.8359090">
        <ele>309.2000000</ele>
        <time>2009-06-14T16:08:13Z</time>
      </trkpt>
      <trkpt lat="45.2393560" lon="-92.8358620">
        <ele>308.7200000</ele>
        <time>2009-06-14T16:08:14Z</time>
      </trkpt>
      <trkpt lat="45.2391770" lon="-92.8358170">
        <ele>309.2000000</ele>
        <time>2009-06-14T16:08:15Z</time>
      </trkpt>
      <trkpt lat="45.2376350" lon="-92.8353940">
        <ele>305.8400000</ele>
        <time>2009-06-14T16:08:25Z</time>
      </trkpt>
      <trkpt lat="45.2374070" lon="-92.8352230">
        <ele>306.3200000</ele>
        <time>2009-06-14T16:08:27Z</time>
      </trkpt>
      <trkpt lat="45.2373130" lon="-92.8350820">
        <ele>306.3200000</ele>
        <time>2009-06-14T16:08:28Z</time>
      </trkpt>
      <trkpt lat="45.2372190" lon="-92.8349400">
        <ele>306.3200000</ele>
        <time>2009-06-14T16:08:29Z</time>
      </trkpt>
      <trkpt lat="45.2371250" lon="-92.8347990">
        <ele>305.8400000</ele>
        <time>2009-06-14T16:08:30Z</time>
      </trkpt>
      <trkpt lat="45.2370270" lon="-92.8346530">
        <ele>306.3200000</ele>
        <time>2009-06-14T16:08:31Z</time>
      </trkpt>
      <trkpt lat="45.2369260" lon="-92.8345010">
        <ele>306.3200000</ele>
        <time>2009-06-14T16:08:32Z</time>
      </trkpt>
      <trkpt lat="45.2368210" lon="-92.8343430">
        <ele>306.3200000</ele>
        <time>2009-06-14T16:08:33Z</time>
      </trkpt>
      <trkpt lat="45.2356320" lon="-92.8323480">
        <ele>308.7200000</ele>
        <time>2009-06-14T16:08:45Z</time>
      </trkpt>
      <trkpt lat="45.2348860" lon="-92.8306480">
        <ele>306.8000000</ele>
        <time>2009-06-14T16:08:55Z</time>
      </trkpt>
      <trkpt lat="45.2345480" lon="-92.8300000">
        <ele>306.3200000</ele>
        <time>2009-06-14T16:08:59Z</time>
      </trkpt>
      <trkpt lat="45.2343900" lon="-92.8299360">
        <ele>306.3200000</ele>
        <time>2009-06-14T16:09:00Z</time>
      </trkpt>
      <trkpt lat="45.2342190" lon="-92.8299270">
        <ele>306.3200000</ele>
        <time>2009-06-14T16:09:01Z</time>
      </trkpt>
      <trkpt lat="45.2340850" lon="-92.8299290">
        <ele>304.3900000</ele>
        <time>2009-06-14T16:09:02Z</time>
      </trkpt>
      <trkpt lat="45.2339070" lon="-92.8299320">
        <ele>305.3600000</ele>
        <time>2009-06-14T16:09:03Z</time>
      </trkpt>
      <trkpt lat="45.2337510" lon="-92.8299340">
        <ele>304.8800000</ele>
        <time>2009-06-14T16:09:04Z</time>
      </trkpt>
      <trkpt lat="45.2335950" lon="-92.8299360">
        <ele>305.8400000</ele>
        <time>2009-06-14T16:09:05Z</time>
      </trkpt>
      <trkpt lat="45.2324450" lon="-92.8299530">
        <ele>314.0100000</ele>
        <time>2009-06-14T16:09:13Z</time>
      </trkpt>
      <trkpt lat="45.2317770" lon="-92.8299630">
        <ele>320.2600000</ele>
        <time>2009-06-14T16:09:20Z</time>
      </trkpt>
      <trkpt lat="45.2314860" lon="-92.8299680">
        <ele>320.2600000</ele>
        <time>2009-06-14T16:09:29Z</time>
      </trkpt>
      <trkpt lat="45.2314860" lon="-92.8299680">
        <ele>317.3700000</ele>
        <time>2009-06-14T16:09:31Z</time>
      </trkpt>
      <trkpt lat="45.2314840" lon="-92.8300530">
        <ele>316.8900000</ele>
        <time>2009-06-14T16:09:32Z</time>
      </trkpt>
      <trkpt lat="45.2314820" lon="-92.8301450">
        <ele>315.4500000</ele>
        <time>2009-06-14T16:09:33Z</time>
      </trkpt>
      <trkpt lat="45.2314790" lon="-92.8302480">
        <ele>315.4500000</ele>
        <time>2009-06-14T16:09:34Z</time>
      </trkpt>
      <trkpt lat="45.2314760" lon="-92.8303760">
        <ele>315.4500000</ele>
        <time>2009-06-14T16:09:35Z</time>
      </trkpt>
      <trkpt lat="45.2314730" lon="-92.8305100">
        <ele>315.9300000</ele>
        <time>2009-06-14T16:09:36Z</time>
      </trkpt>
      <trkpt lat="45.2314430" lon="-92.8317590">
        <ele>311.6000000</ele>
        <time>2009-06-14T16:09:43Z</time>
      </trkpt>
      <trkpt lat="45.2314010" lon="-92.8334690">
        <ele>306.8000000</ele>
        <time>2009-06-14T16:09:51Z</time>
      </trkpt>
      <trkpt lat="45.2313530" lon="-92.8337160">
        <ele>305.8400000</ele>
        <time>2009-06-14T16:09:52Z</time>
      </trkpt>
      <trkpt lat="45.2312680" lon="-92.8339650">
        <ele>303.9100000</ele>
        <time>2009-06-14T16:09:53Z</time>
      </trkpt>
      <trkpt lat="45.2311760" lon="-92.8341500">
        <ele>301.9900000</ele>
        <time>2009-06-14T16:09:54Z</time>
      </trkpt>
      <trkpt lat="45.2310960" lon="-92.8343090">
        <ele>302.9500000</ele>
        <time>2009-06-14T16:09:55Z</time>
      </trkpt>
      <trkpt lat="45.2310060" lon="-92.8344890">
        <ele>302.4700000</ele>
        <time>2009-06-14T16:09:56Z</time>
      </trkpt>
      <trkpt lat="45.2309080" lon="-92.8346860">
        <ele>301.9900000</ele>
        <time>2009-06-14T16:09:57Z</time>
      </trkpt>
      <trkpt lat="45.2308650" lon="-92.8348600">
        <ele>300.0700000</ele>
        <time>2009-06-14T16:09:58Z</time>
      </trkpt>
      <trkpt lat="45.2308350" lon="-92.8350560">
        <ele>297.1800000</ele>
        <time>2009-06-14T16:09:59Z</time>
      </trkpt>
      <trkpt lat="45.2308160" lon="-92.8351780">
        <ele>296.7000000</ele>
        <time>2009-06-14T16:10:00Z</time>
      </trkpt>
      <trkpt lat="45.2307990" lon="-92.8352890">
        <ele>295.7400000</ele>
        <time>2009-06-14T16:10:01Z</time>
      </trkpt>
      <trkpt lat="45.2307990" lon="-92.8352890">
        <ele>295.2600000</ele>
        <time>2009-06-14T16:10:02Z</time>
      </trkpt>
      <trkpt lat="45.2307990" lon="-92.8352890">
        <ele>294.3000000</ele>
        <time>2009-06-14T16:10:03Z</time>
      </trkpt>
      <trkpt lat="45.2310230" lon="-92.8359600">
        <ele>294.7800000</ele>
        <time>2009-06-14T16:10:04Z</time>
      </trkpt>
      <trkpt lat="45.2310900" lon="-92.8361610">
        <ele>296.2200000</ele>
        <time>2009-06-14T16:10:05Z</time>
      </trkpt>
      <trkpt lat="45.2311510" lon="-92.8363460">
        <ele>296.2200000</ele>
        <time>2009-06-14T16:10:06Z</time>
      </trkpt>
      <trkpt lat="45.2315030" lon="-92.8371590">
        <ele>297.1800000</ele>
        <time>2009-06-14T16:10:11Z</time>
      </trkpt>
      <trkpt lat="45.2315960" lon="-92.8372870">
        <ele>297.6700000</ele>
        <time>2009-06-14T16:10:12Z</time>
      </trkpt>
      <trkpt lat="45.2327860" lon="-92.8390200">
        <ele>300.0700000</ele>
        <time>2009-06-14T16:10:25Z</time>
      </trkpt>
      <trkpt lat="45.2342030" lon="-92.8413380">
        <ele>301.9900000</ele>
        <time>2009-06-14T16:10:40Z</time>
      </trkpt>
      <trkpt lat="45.2346260" lon="-92.8424660">
        <ele>303.4300000</ele>
        <time>2009-06-14T16:10:46Z</time>
      </trkpt>
      <trkpt lat="45.2346590" lon="-92.8426570">
        <ele>303.4300000</ele>
        <time>2009-06-14T16:10:47Z</time>
      </trkpt>
      <trkpt lat="45.2346620" lon="-92.8428680">
        <ele>303.9100000</ele>
        <time>2009-06-14T16:10:48Z</time>
      </trkpt>
      <trkpt lat="45.2346410" lon="-92.8446840">
        <ele>304.8800000</ele>
        <time>2009-06-14T16:10:57Z</time>
      </trkpt>
      <trkpt lat="45.2345430" lon="-92.8450750">
        <ele>303.9100000</ele>
        <time>2009-06-14T16:10:59Z</time>
      </trkpt>
      <trkpt lat="45.2344750" lon="-92.8452710">
        <ele>302.9500000</ele>
        <time>2009-06-14T16:11:00Z</time>
      </trkpt>
      <trkpt lat="45.2344040" lon="-92.8454600">
        <ele>301.5100000</ele>
        <time>2009-06-14T16:11:01Z</time>
      </trkpt>
      <trkpt lat="45.2342980" lon="-92.8456320">
        <ele>301.0300000</ele>
        <time>2009-06-14T16:11:02Z</time>
      </trkpt>
      <trkpt lat="45.2341930" lon="-92.8458010">
        <ele>300.0700000</ele>
        <time>2009-06-14T16:11:03Z</time>
      </trkpt>
      <trkpt lat="45.2340870" lon="-92.8459730">
        <ele>300.0700000</ele>
        <time>2009-06-14T16:11:04Z</time>
      </trkpt>
      <trkpt lat="45.2326700" lon="-92.8482720">
        <ele>304.8800000</ele>
        <time>2009-06-14T16:11:17Z</time>
      </trkpt>
      <trkpt lat="45.2320650" lon="-92.8494840">
        <ele>307.2800000</ele>
        <time>2009-06-14T16:11:25Z</time>
      </trkpt>
      <trkpt lat="45.2320190" lon="-92.8495840">
        <ele>306.8000000</ele>
        <time>2009-06-14T16:11:27Z</time>
      </trkpt>
      <trkpt lat="45.2316690" lon="-92.8492810">
        <ele>306.8000000</ele>
        <time>2009-06-14T16:11:31Z</time>
      </trkpt>
      <trkpt lat="45.2312150" lon="-92.8489500">
        <ele>304.8800000</ele>
        <time>2009-06-14T16:11:35Z</time>
      </trkpt>
      <trkpt lat="45.2301180" lon="-92.8489020">
        <ele>303.9100000</ele>
        <time>2009-06-14T16:11:42Z</time>
      </trkpt>
      <trkpt lat="45.2288870" lon="-92.8492200">
        <ele>301.9900000</ele>
        <time>2009-06-14T16:11:50Z</time>
      </trkpt>
      <trkpt lat="45.2282210" lon="-92.8487230">
        <ele>298.6300000</ele>
        <time>2009-06-14T16:11:55Z</time>
      </trkpt>
      <trkpt lat="45.2275540" lon="-92.8479020">
        <ele>297.1800000</ele>
        <time>2009-06-14T16:12:01Z</time>
      </trkpt>
      <trkpt lat="45.2274880" lon="-92.8474710">
        <ele>300.0700000</ele>
        <time>2009-06-14T16:12:05Z</time>
      </trkpt>
      <trkpt lat="45.2274280" lon="-92.8474460">
        <ele>300.0700000</ele>
        <time>2009-06-14T16:12:06Z</time>
      </trkpt>
      <trkpt lat="45.2272850" lon="-92.8474050">
        <ele>301.0300000</ele>
        <time>2009-06-14T16:12:08Z</time>
      </trkpt>
      <trkpt lat="45.2268660" lon="-92.8474760">
        <ele>301.5100000</ele>
        <time>2009-06-14T16:12:12Z</time>
      </trkpt>
      <trkpt lat="45.2262900" lon="-92.8471710">
        <ele>301.9900000</ele>
        <time>2009-06-14T16:12:17Z</time>
      </trkpt>
      <trkpt lat="45.2262070" lon="-92.8465620">
        <ele>301.9900000</ele>
        <time>2009-06-14T16:12:20Z</time>
      </trkpt>
      <trkpt lat="45.2261860" lon="-92.8461250">
        <ele>300.5500000</ele>
        <time>2009-06-14T16:12:22Z</time>
      </trkpt>
      <trkpt lat="45.2257150" lon="-92.8450350">
        <ele>298.1500000</ele>
        <time>2009-06-14T16:12:28Z</time>
      </trkpt>
      <trkpt lat="45.2254530" lon="-92.8445320">
        <ele>298.6300000</ele>
        <time>2009-06-14T16:12:32Z</time>
      </trkpt>
      <trkpt lat="45.2254210" lon="-92.8437430">
        <ele>299.1100000</ele>
        <time>2009-06-14T16:12:38Z</time>
      </trkpt>
      <trkpt lat="45.2258740" lon="-92.8433400">
        <ele>301.5100000</ele>
        <time>2009-06-14T16:12:43Z</time>
      </trkpt>
      <trkpt lat="45.2263920" lon="-92.8431740">
        <ele>304.3900000</ele>
        <time>2009-06-14T16:12:51Z</time>
      </trkpt>
      <trkpt lat="45.2264910" lon="-92.8431410">
        <ele>304.8800000</ele>
        <time>2009-06-14T16:12:53Z</time>
      </trkpt>
      <trkpt lat="45.2265670" lon="-92.8428380">
        <ele>304.3900000</ele>
        <time>2009-06-14T16:12:58Z</time>
      </trkpt>
      <trkpt lat="45.2263780" lon="-92.8420900">
        <ele>306.8000000</ele>
        <time>2009-06-14T16:13:03Z</time>
      </trkpt>
      <trkpt lat="45.2263880" lon="-92.8417260">
        <ele>308.7200000</ele>
        <time>2009-06-14T16:13:05Z</time>
      </trkpt>
      <trkpt lat="45.2260470" lon="-92.8408720">
        <ele>310.1600000</ele>
        <time>2009-06-14T16:13:11Z</time>
      </trkpt>
      <trkpt lat="45.2259350" lon="-92.8407980">
        <ele>309.6800000</ele>
        <time>2009-06-14T16:13:12Z</time>
      </trkpt>
      <trkpt lat="45.2253580" lon="-92.8399610">
        <ele>304.3900000</ele>
        <time>2009-06-14T16:13:19Z</time>
      </trkpt>
      <trkpt lat="45.2253640" lon="-92.8397070">
        <ele>304.3900000</ele>
        <time>2009-06-14T16:13:22Z</time>
      </trkpt>
      <trkpt lat="45.2253840" lon="-92.8392720">
        <ele>303.4300000</ele>
        <time>2009-06-14T16:13:33Z</time>
      </trkpt>
      <trkpt lat="45.2253120" lon="-92.8391500">
        <ele>302.4700000</ele>
        <time>2009-06-14T16:13:35Z</time>
      </trkpt>
      <trkpt lat="45.2252580" lon="-92.8391680">
        <ele>301.5100000</ele>
        <time>2009-06-14T16:13:36Z</time>
      </trkpt>
      <trkpt lat="45.2251790" lon="-92.8391940">
        <ele>301.0300000</ele>
        <time>2009-06-14T16:13:37Z</time>
      </trkpt>
      <trkpt lat="45.2250770" lon="-92.8392280">
        <ele>300.0700000</ele>
        <time>2009-06-14T16:13:38Z</time>
      </trkpt>
      <trkpt lat="45.2249600" lon="-92.8392670">
        <ele>299.5900000</ele>
        <time>2009-06-14T16:13:39Z</time>
      </trkpt>
      <trkpt lat="45.2244210" lon="-92.8394460">
        <ele>297.6700000</ele>
        <time>2009-06-14T16:13:43Z</time>
      </trkpt>
      <trkpt lat="45.2242850" lon="-92.8394520">
        <ele>297.1800000</ele>
        <time>2009-06-14T16:13:44Z</time>
      </trkpt>
      <trkpt lat="45.2241650" lon="-92.8394180">
        <ele>296.7000000</ele>
        <time>2009-06-14T16:13:45Z</time>
      </trkpt>
      <trkpt lat="45.2241470" lon="-92.8394090">
        <ele>296.7000000</ele>
        <time>2009-06-14T16:13:46Z</time>
      </trkpt>
      <trkpt lat="45.2241110" lon="-92.8391010">
        <ele>295.7400000</ele>
        <time>2009-06-14T16:13:47Z</time>
      </trkpt>
      <trkpt lat="45.2240900" lon="-92.8389240">
        <ele>295.7400000</ele>
        <time>2009-06-14T16:13:48Z</time>
      </trkpt>
      <trkpt lat="45.2240700" lon="-92.8387510">
        <ele>295.7400000</ele>
        <time>2009-06-14T16:13:49Z</time>
      </trkpt>
      <trkpt lat="45.2240070" lon="-92.8385760">
        <ele>296.2200000</ele>
        <time>2009-06-14T16:13:50Z</time>
      </trkpt>
      <trkpt lat="45.2239340" lon="-92.8384380">
        <ele>296.2200000</ele>
        <time>2009-06-14T16:13:51Z</time>
      </trkpt>
      <trkpt lat="45.2238590" lon="-92.8382950">
        <ele>296.2200000</ele>
        <time>2009-06-14T16:13:52Z</time>
      </trkpt>
      <trkpt lat="45.2230890" lon="-92.8365720">
        <ele>297.1800000</ele>
        <time>2009-06-14T16:14:04Z</time>
      </trkpt>
      <trkpt lat="45.2228870" lon="-92.8358520">
        <ele>303.4300000</ele>
        <time>2009-06-14T16:14:11Z</time>
      </trkpt>
      <trkpt lat="45.2227830" lon="-92.8354790">
        <ele>305.8400000</ele>
        <time>2009-06-14T16:14:20Z</time>
      </trkpt>
      <trkpt lat="45.2226160" lon="-92.8346810">
        <ele>308.7200000</ele>
        <time>2009-06-14T16:14:29Z</time>
      </trkpt>
      <trkpt lat="45.2225610" lon="-92.8341000">
        <ele>310.1600000</ele>
        <time>2009-06-14T16:14:33Z</time>
      </trkpt>
      <trkpt lat="45.2224050" lon="-92.8330030">
        <ele>307.2800000</ele>
        <time>2009-06-14T16:14:41Z</time>
      </trkpt>
      <trkpt lat="45.2223640" lon="-92.8328950">
        <ele>306.3200000</ele>
        <time>2009-06-14T16:14:42Z</time>
      </trkpt>
      <trkpt lat="45.2223150" lon="-92.8328130">
        <ele>305.3600000</ele>
        <time>2009-06-14T16:14:43Z</time>
      </trkpt>
      <trkpt lat="45.2222390" lon="-92.8327370">
        <ele>304.8800000</ele>
        <time>2009-06-14T16:14:44Z</time>
      </trkpt>
      <trkpt lat="45.2221640" lon="-92.8326900">
        <ele>303.4300000</ele>
        <time>2009-06-14T16:14:45Z</time>
      </trkpt>
      <trkpt lat="45.2220710" lon="-92.8326480">
        <ele>302.9500000</ele>
        <time>2009-06-14T16:14:46Z</time>
      </trkpt>
      <trkpt lat="45.2218940" lon="-92.8325680">
        <ele>301.5100000</ele>
        <time>2009-06-14T16:14:48Z</time>
      </trkpt>
      <trkpt lat="45.2218200" lon="-92.8325340">
        <ele>301.5100000</ele>
        <time>2009-06-14T16:14:49Z</time>
      </trkpt>
      <trkpt lat="45.2217080" lon="-92.8324640">
        <ele>301.5100000</ele>
        <time>2009-06-14T16:14:50Z</time>
      </trkpt>
      <trkpt lat="45.2214120" lon="-92.8315550">
        <ele>299.5900000</ele>
        <time>2009-06-14T16:14:56Z</time>
      </trkpt>
      <trkpt lat="45.2213370" lon="-92.8315550">
        <ele>298.6300000</ele>
        <time>2009-06-14T16:14:57Z</time>
      </trkpt>
      <trkpt lat="45.2212240" lon="-92.8315550">
        <ele>298.1500000</ele>
        <time>2009-06-14T16:14:58Z</time>
      </trkpt>
      <trkpt lat="45.2210940" lon="-92.8315550">
        <ele>297.6700000</ele>
        <time>2009-06-14T16:14:59Z</time>
      </trkpt>
      <trkpt lat="45.2209910" lon="-92.8315550">
        <ele>297.6700000</ele>
        <time>2009-06-14T16:15:00Z</time>
      </trkpt>
      <trkpt lat="45.2208930" lon="-92.8315550">
        <ele>297.1800000</ele>
        <time>2009-06-14T16:15:01Z</time>
      </trkpt>
      <trkpt lat="45.2207140" lon="-92.8315550">
        <ele>296.7000000</ele>
        <time>2009-06-14T16:15:03Z</time>
      </trkpt>
      <trkpt lat="45.2206110" lon="-92.8314950">
        <ele>295.7400000</ele>
        <time>2009-06-14T16:15:04Z</time>
      </trkpt>
      <trkpt lat="45.2205070" lon="-92.8314330">
        <ele>295.2600000</ele>
        <time>2009-06-14T16:15:05Z</time>
      </trkpt>
      <trkpt lat="45.2204090" lon="-92.8313760">
        <ele>294.3000000</ele>
        <time>2009-06-14T16:15:06Z</time>
      </trkpt>
      <trkpt lat="45.2203120" lon="-92.8313190">
        <ele>293.3400000</ele>
        <time>2009-06-14T16:15:07Z</time>
      </trkpt>
      <trkpt lat="45.2197990" lon="-92.8309100">
        <ele>291.4200000</ele>
        <time>2009-06-14T16:15:13Z</time>
      </trkpt>
      <trkpt lat="45.2197270" lon="-92.8308260">
        <ele>291.4200000</ele>
        <time>2009-06-14T16:15:14Z</time>
      </trkpt>
      <trkpt lat="45.2196830" lon="-92.8307160">
        <ele>290.9400000</ele>
        <time>2009-06-14T16:15:15Z</time>
      </trkpt>
      <trkpt lat="45.2196410" lon="-92.8306110">
        <ele>291.4200000</ele>
        <time>2009-06-14T16:15:16Z</time>
      </trkpt>
      <trkpt lat="45.2196410" lon="-92.8304620">
        <ele>291.4200000</ele>
        <time>2009-06-14T16:15:17Z</time>
      </trkpt>
      <trkpt lat="45.2196410" lon="-92.8302880">
        <ele>291.9000000</ele>
        <time>2009-06-14T16:15:18Z</time>
      </trkpt>
      <trkpt lat="45.2196410" lon="-92.8301110">
        <ele>292.3800000</ele>
        <time>2009-06-14T16:15:19Z</time>
      </trkpt>
      <trkpt lat="45.2196840" lon="-92.8294330">
        <ele>292.3800000</ele>
        <time>2009-06-14T16:15:23Z</time>
      </trkpt>
      <trkpt lat="45.2197310" lon="-92.8292680">
        <ele>292.8600000</ele>
        <time>2009-06-14T16:15:24Z</time>
      </trkpt>
      <trkpt lat="45.2197780" lon="-92.8291030">
        <ele>292.8600000</ele>
        <time>2009-06-14T16:15:25Z</time>
      </trkpt>
      <trkpt lat="45.2198870" lon="-92.8285900">
        <ele>292.8600000</ele>
        <time>2009-06-14T16:15:28Z</time>
      </trkpt>
      <trkpt lat="45.2198680" lon="-92.8284330">
        <ele>292.8600000</ele>
        <time>2009-06-14T16:15:29Z</time>
      </trkpt>
      <trkpt lat="45.2198210" lon="-92.8283020">
        <ele>293.3400000</ele>
        <time>2009-06-14T16:15:30Z</time>
      </trkpt>
      <trkpt lat="45.2197190" lon="-92.8282000">
        <ele>293.3400000</ele>
        <time>2009-06-14T16:15:31Z</time>
      </trkpt>
      <trkpt lat="45.2196070" lon="-92.8281380">
        <ele>293.8200000</ele>
        <time>2009-06-14T16:15:32Z</time>
      </trkpt>
      <trkpt lat="45.2195010" lon="-92.8281010">
        <ele>293.8200000</ele>
        <time>2009-06-14T16:15:33Z</time>
      </trkpt>
      <trkpt lat="45.2193880" lon="-92.8280610">
        <ele>294.3000000</ele>
        <time>2009-06-14T16:15:34Z</time>
      </trkpt>
      <trkpt lat="45.2192480" lon="-92.8280130">
        <ele>294.7800000</ele>
        <time>2009-06-14T16:15:35Z</time>
      </trkpt>
      <trkpt lat="45.2190860" lon="-92.8279560">
        <ele>295.2600000</ele>
        <time>2009-06-14T16:15:36Z</time>
      </trkpt>
      <trkpt lat="45.2189240" lon="-92.8278990">
        <ele>295.7400000</ele>
        <time>2009-06-14T16:15:37Z</time>
      </trkpt>
      <trkpt lat="45.2177750" lon="-92.8277470">
        <ele>295.7400000</ele>
        <time>2009-06-14T16:15:46Z</time>
      </trkpt>
      <trkpt lat="45.2176550" lon="-92.8276960">
        <ele>295.7400000</ele>
        <time>2009-06-14T16:15:47Z</time>
      </trkpt>
      <trkpt lat="45.2176350" lon="-92.8276280">
        <ele>295.7400000</ele>
        <time>2009-06-14T16:15:48Z</time>
      </trkpt>
      <trkpt lat="45.2175790" lon="-92.8275160">
        <ele>297.1800000</ele>
        <time>2009-06-14T16:15:49Z</time>
      </trkpt>
      <trkpt lat="45.2175210" lon="-92.8274010">
        <ele>298.1500000</ele>
        <time>2009-06-14T16:15:50Z</time>
      </trkpt>
      <trkpt lat="45.2174610" lon="-92.8272810">
        <ele>299.1100000</ele>
        <time>2009-06-14T16:15:51Z</time>
      </trkpt>
      <trkpt lat="45.2171760" lon="-92.8265700">
        <ele>304.8800000</ele>
        <time>2009-06-14T16:15:56Z</time>
      </trkpt>
      <trkpt lat="45.2171520" lon="-92.8264030">
        <ele>305.8400000</ele>
        <time>2009-06-14T16:15:57Z</time>
      </trkpt>
      <trkpt lat="45.2171520" lon="-92.8262470">
        <ele>306.3200000</ele>
        <time>2009-06-14T16:15:58Z</time>
      </trkpt>
      <trkpt lat="45.2171520" lon="-92.8260900">
        <ele>306.8000000</ele>
        <time>2009-06-14T16:15:59Z</time>
      </trkpt>
      <trkpt lat="45.2171520" lon="-92.8259340">
        <ele>307.2800000</ele>
        <time>2009-06-14T16:16:00Z</time>
      </trkpt>
      <trkpt lat="45.2171520" lon="-92.8252070">
        <ele>308.2400000</ele>
        <time>2009-06-14T16:16:06Z</time>
      </trkpt>
      <trkpt lat="45.2171520" lon="-92.8251580">
        <ele>308.7200000</ele>
        <time>2009-06-14T16:16:07Z</time>
      </trkpt>
      <trkpt lat="45.2171520" lon="-92.8251200">
        <ele>308.2400000</ele>
        <time>2009-06-14T16:16:08Z</time>
      </trkpt>
      <trkpt lat="45.2171520" lon="-92.8250320">
        <ele>308.2400000</ele>
        <time>2009-06-14T16:16:09Z</time>
      </trkpt>
      <trkpt lat="45.2170460" lon="-92.8250310">
        <ele>308.2400000</ele>
        <time>2009-06-14T16:16:10Z</time>
      </trkpt>
      <trkpt lat="45.2169710" lon="-92.8250310">
        <ele>308.2400000</ele>
        <time>2009-06-14T16:16:11Z</time>
      </trkpt>
      <trkpt lat="45.2168830" lon="-92.8250300">
        <ele>308.2400000</ele>
        <time>2009-06-14T16:16:12Z</time>
      </trkpt>
      <trkpt lat="45.2167800" lon="-92.8250290">
        <ele>308.2400000</ele>
        <time>2009-06-14T16:16:13Z</time>
      </trkpt>
      <trkpt lat="45.2158250" lon="-92.8250210">
        <ele>308.2400000</ele>
        <time>2009-06-14T16:16:19Z</time>
      </trkpt>
      <trkpt lat="45.2130720" lon="-92.8249990">
        <ele>307.7600000</ele>
        <time>2009-06-14T16:16:32Z</time>
      </trkpt>
      <trkpt lat="45.2083660" lon="-92.8249650">
        <ele>308.7200000</ele>
        <time>2009-06-14T16:16:54Z</time>
      </trkpt>
      <trkpt lat="45.2044240" lon="-92.8249940">
        <ele>308.7200000</ele>
        <time>2009-06-14T16:17:12Z</time>
      </trkpt>
      <trkpt lat="45.2015560" lon="-92.8251280">
        <ele>308.2400000</ele>
        <time>2009-06-14T16:17:25Z</time>
      </trkpt>
      <trkpt lat="45.1979480" lon="-92.8252860">
        <ele>304.8800000</ele>
        <time>2009-06-14T16:17:41Z</time>
      </trkpt>
      <trkpt lat="45.1966720" lon="-92.8257710">
        <ele>304.3900000</ele>
        <time>2009-06-14T16:17:47Z</time>
      </trkpt>
      <trkpt lat="45.1954710" lon="-92.8265950">
        <ele>305.8400000</ele>
        <time>2009-06-14T16:17:54Z</time>
      </trkpt>
      <trkpt lat="45.1948370" lon="-92.8268240">
        <ele>305.8400000</ele>
        <time>2009-06-14T16:18:00Z</time>
      </trkpt>
      <trkpt lat="45.1946370" lon="-92.8268740">
        <ele>305.8400000</ele>
        <time>2009-06-14T16:18:05Z</time>
      </trkpt>
      <trkpt lat="45.1946490" lon="-92.8270460">
        <ele>304.8800000</ele>
        <time>2009-06-14T16:18:06Z</time>
      </trkpt>
      <trkpt lat="45.1946640" lon="-92.8271400">
        <ele>303.9100000</ele>
        <time>2009-06-14T16:18:07Z</time>
      </trkpt>
      <trkpt lat="45.1946820" lon="-92.8272550">
        <ele>303.9100000</ele>
        <time>2009-06-14T16:18:08Z</time>
      </trkpt>
      <trkpt lat="45.1947040" lon="-92.8273920">
        <ele>303.4300000</ele>
        <time>2009-06-14T16:18:09Z</time>
      </trkpt>
      <trkpt lat="45.1949080" lon="-92.8286690">
        <ele>302.9500000</ele>
        <time>2009-06-14T16:18:15Z</time>
      </trkpt>
      <trkpt lat="45.1954240" lon="-92.8303080">
        <ele>303.9100000</ele>
        <time>2009-06-14T16:18:21Z</time>
      </trkpt>
      <trkpt lat="45.1958430" lon="-92.8314580">
        <ele>305.3600000</ele>
        <time>2009-06-14T16:18:25Z</time>
      </trkpt>
      <trkpt lat="45.1959090" lon="-92.8317610">
        <ele>305.8400000</ele>
        <time>2009-06-14T16:18:26Z</time>
      </trkpt>
      <trkpt lat="45.1959740" lon="-92.8320580">
        <ele>305.8400000</ele>
        <time>2009-06-14T16:18:27Z</time>
      </trkpt>
      <trkpt lat="45.1960080" lon="-92.8323590">
        <ele>306.3200000</ele>
        <time>2009-06-14T16:18:28Z</time>
      </trkpt>
      <trkpt lat="45.1960290" lon="-92.8326670">
        <ele>306.8000000</ele>
        <time>2009-06-14T16:18:29Z</time>
      </trkpt>
      <trkpt lat="45.1960350" lon="-92.8329690">
        <ele>307.2800000</ele>
        <time>2009-06-14T16:18:30Z</time>
      </trkpt>
      <trkpt lat="45.1960290" lon="-92.8332730">
        <ele>307.2800000</ele>
        <time>2009-06-14T16:18:31Z</time>
      </trkpt>
      <trkpt lat="45.1959610" lon="-92.8378350">
        <ele>303.4300000</ele>
        <time>2009-06-14T16:18:47Z</time>
      </trkpt>
      <trkpt lat="45.1959010" lon="-92.8425410">
        <ele>299.5900000</ele>
        <time>2009-06-14T16:19:03Z</time>
      </trkpt>
      <trkpt lat="45.1958510" lon="-92.8464780">
        <ele>298.1500000</ele>
        <time>2009-06-14T16:19:14Z</time>
      </trkpt>
      <trkpt lat="45.1958030" lon="-92.8502550">
        <ele>296.2200000</ele>
        <time>2009-06-14T16:19:25Z</time>
      </trkpt>
      <trkpt lat="45.1957350" lon="-92.8559600">
        <ele>305.3600000</ele>
        <time>2009-06-14T16:19:43Z</time>
      </trkpt>
      <trkpt lat="45.1957170" lon="-92.8617620">
        <ele>303.9100000</ele>
        <time>2009-06-14T16:20:02Z</time>
      </trkpt>
      <trkpt lat="45.1956990" lon="-92.8672510">
        <ele>301.9900000</ele>
        <time>2009-06-14T16:20:18Z</time>
      </trkpt>
      <trkpt lat="45.1956780" lon="-92.8739770">
        <ele>306.8000000</ele>
        <time>2009-06-14T16:20:38Z</time>
      </trkpt>
      <trkpt lat="45.1956630" lon="-92.8785350">
        <ele>312.5700000</ele>
        <time>2009-06-14T16:20:53Z</time>
      </trkpt>
      <trkpt lat="45.1956570" lon="-92.8804280">
        <ele>314.9700000</ele>
        <time>2009-06-14T16:21:01Z</time>
      </trkpt>
      <trkpt lat="45.1956560" lon="-92.8807690">
        <ele>314.9700000</ele>
        <time>2009-06-14T16:21:06Z</time>
      </trkpt>
      <trkpt lat="45.1956550" lon="-92.8810750">
        <ele>314.4900000</ele>
        <time>2009-06-14T16:21:16Z</time>
      </trkpt>
      <trkpt lat="45.1956540" lon="-92.8816470">
        <ele>317.8500000</ele>
        <time>2009-06-14T16:21:33Z</time>
      </trkpt>
      <trkpt lat="45.1956520" lon="-92.8820390">
        <ele>316.8900000</ele>
        <time>2009-06-14T16:21:44Z</time>
      </trkpt>
      <trkpt lat="45.1956530" lon="-92.8824810">
        <ele>316.4100000</ele>
        <time>2009-06-14T16:21:51Z</time>
      </trkpt>
      <trkpt lat="45.1956640" lon="-92.8837300">
        <ele>316.8900000</ele>
        <time>2009-06-14T16:21:57Z</time>
      </trkpt>
      <trkpt lat="45.1956880" lon="-92.8865670">
        <ele>317.8500000</ele>
        <time>2009-06-14T16:22:07Z</time>
      </trkpt>
      <trkpt lat="45.1957360" lon="-92.8922800">
        <ele>317.8500000</ele>
        <time>2009-06-14T16:22:27Z</time>
      </trkpt>
      <trkpt lat="45.1957980" lon="-92.8992750">
        <ele>300.0700000</ele>
        <time>2009-06-14T16:22:50Z</time>
      </trkpt>
      <trkpt lat="45.1958610" lon="-92.9067530">
        <ele>299.1100000</ele>
        <time>2009-06-14T16:23:13Z</time>
      </trkpt>
      <trkpt lat="45.1959140" lon="-92.9130700">
        <ele>297.6700000</ele>
        <time>2009-06-14T16:23:32Z</time>
      </trkpt>
      <trkpt lat="45.1959470" lon="-92.9169910">
        <ele>309.2000000</ele>
        <time>2009-06-14T16:23:45Z</time>
      </trkpt>
      <trkpt lat="45.1959510" lon="-92.9174860">
        <ele>308.7200000</ele>
        <time>2009-06-14T16:23:48Z</time>
      </trkpt>
      <trkpt lat="45.1959520" lon="-92.9175620">
        <ele>308.2400000</ele>
        <time>2009-06-14T16:23:49Z</time>
      </trkpt>
      <trkpt lat="45.1957900" lon="-92.9175590">
        <ele>307.7600000</ele>
        <time>2009-06-14T16:23:50Z</time>
      </trkpt>
      <trkpt lat="45.1956710" lon="-92.9175600">
        <ele>307.2800000</ele>
        <time>2009-06-14T16:23:51Z</time>
      </trkpt>
      <trkpt lat="45.1955530" lon="-92.9175610">
        <ele>306.8000000</ele>
        <time>2009-06-14T16:23:52Z</time>
      </trkpt>
      <trkpt lat="45.1954290" lon="-92.9175610">
        <ele>305.3600000</ele>
        <time>2009-06-14T16:23:53Z</time>
      </trkpt>
      <trkpt lat="45.1942440" lon="-92.9175690">
        <ele>304.8800000</ele>
        <time>2009-06-14T16:24:00Z</time>
      </trkpt>
      <trkpt lat="45.1917740" lon="-92.9175840">
        <ele>301.9900000</ele>
        <time>2009-06-14T16:24:12Z</time>
      </trkpt>
      <trkpt lat="45.1880680" lon="-92.9176010">
        <ele>308.2400000</ele>
        <time>2009-06-14T16:24:29Z</time>
      </trkpt>
      <trkpt lat="45.1856860" lon="-92.9176010">
        <ele>309.6800000</ele>
        <time>2009-06-14T16:24:40Z</time>
      </trkpt>
      <trkpt lat="45.1822520" lon="-92.9176010">
        <ele>302.4700000</ele>
        <time>2009-06-14T16:24:57Z</time>
      </trkpt>
      <trkpt lat="45.1797200" lon="-92.9175660">
        <ele>303.4300000</ele>
        <time>2009-06-14T16:25:10Z</time>
      </trkpt>
      <trkpt lat="45.1756100" lon="-92.9175040">
        <ele>302.4700000</ele>
        <time>2009-06-14T16:25:30Z</time>
      </trkpt>
      <trkpt lat="45.1727970" lon="-92.9174610">
        <ele>310.1600000</ele>
        <time>2009-06-14T16:25:45Z</time>
      </trkpt>
      <trkpt lat="45.1709610" lon="-92.9174330">
        <ele>311.6000000</ele>
        <time>2009-06-14T16:25:57Z</time>
      </trkpt>
      <trkpt lat="45.1706750" lon="-92.9174290">
        <ele>312.0900000</ele>
        <time>2009-06-14T16:26:03Z</time>
      </trkpt>
      <trkpt lat="45.1706750" lon="-92.9174290">
        <ele>312.0900000</ele>
        <time>2009-06-14T16:26:05Z</time>
      </trkpt>
      <trkpt lat="45.1706750" lon="-92.9174290">
        <ele>312.0900000</ele>
        <time>2009-06-14T16:26:06Z</time>
      </trkpt>
      <trkpt lat="45.1706730" lon="-92.9172950">
        <ele>311.6000000</ele>
        <time>2009-06-14T16:26:07Z</time>
      </trkpt>
      <trkpt lat="45.1706720" lon="-92.9171830">
        <ele>311.1200000</ele>
        <time>2009-06-14T16:26:08Z</time>
      </trkpt>
      <trkpt lat="45.1706700" lon="-92.9170410">
        <ele>311.6000000</ele>
        <time>2009-06-14T16:26:09Z</time>
      </trkpt>
      <trkpt lat="45.1706550" lon="-92.9157610">
        <ele>312.5700000</ele>
        <time>2009-06-14T16:26:15Z</time>
      </trkpt>
      <trkpt lat="45.1706180" lon="-92.9125400">
        <ele>313.0500000</ele>
        <time>2009-06-14T16:26:26Z</time>
      </trkpt>
      <trkpt lat="45.1705890" lon="-92.9078750">
        <ele>313.0500000</ele>
        <time>2009-06-14T16:26:42Z</time>
      </trkpt>
      <trkpt lat="45.1706640" lon="-92.9054370">
        <ele>311.6000000</ele>
        <time>2009-06-14T16:26:51Z</time>
      </trkpt>
      <trkpt lat="45.1706160" lon="-92.9035420">
        <ele>316.4100000</ele>
        <time>2009-06-14T16:26:58Z</time>
      </trkpt>
      <trkpt lat="45.1705900" lon="-92.9032770">
        <ele>316.4100000</ele>
        <time>2009-06-14T16:26:59Z</time>
      </trkpt>
      <trkpt lat="45.1705160" lon="-92.9030330">
        <ele>316.8900000</ele>
        <time>2009-06-14T16:27:00Z</time>
      </trkpt>
      <trkpt lat="45.1702090" lon="-92.9020430">
        <ele>316.4100000</ele>
        <time>2009-06-14T16:27:04Z</time>
      </trkpt>
      <trkpt lat="45.1701710" lon="-92.9017700">
        <ele>316.4100000</ele>
        <time>2009-06-14T16:27:05Z</time>
      </trkpt>
      <trkpt lat="45.1701690" lon="-92.9014960">
        <ele>316.4100000</ele>
        <time>2009-06-14T16:27:06Z</time>
      </trkpt>
      <trkpt lat="45.1701820" lon="-92.9012330">
        <ele>316.8900000</ele>
        <time>2009-06-14T16:27:07Z</time>
      </trkpt>
      <trkpt lat="45.1701940" lon="-92.9009740">
        <ele>316.8900000</ele>
        <time>2009-06-14T16:27:08Z</time>
      </trkpt>
      <trkpt lat="45.1702860" lon="-92.8997150">
        <ele>317.3700000</ele>
        <time>2009-06-14T16:27:13Z</time>
      </trkpt>
      <trkpt lat="45.1703340" lon="-92.8994690">
        <ele>317.3700000</ele>
        <time>2009-06-14T16:27:14Z</time>
      </trkpt>
      <trkpt lat="45.1705770" lon="-92.8982200">
        <ele>317.3700000</ele>
        <time>2009-06-14T16:27:19Z</time>
      </trkpt>
      <trkpt lat="45.1705730" lon="-92.8979690">
        <ele>317.8500000</ele>
        <time>2009-06-14T16:27:20Z</time>
      </trkpt>
      <trkpt lat="45.1705520" lon="-92.8977120">
        <ele>317.8500000</ele>
        <time>2009-06-14T16:27:21Z</time>
      </trkpt>
      <trkpt lat="45.1705040" lon="-92.8974770">
        <ele>318.3300000</ele>
        <time>2009-06-14T16:27:22Z</time>
      </trkpt>
      <trkpt lat="45.1704600" lon="-92.8973020">
        <ele>318.8100000</ele>
        <time>2009-06-14T16:27:23Z</time>
      </trkpt>
      <trkpt lat="45.1703170" lon="-92.8970620">
        <ele>318.8100000</ele>
        <time>2009-06-14T16:27:24Z</time>
      </trkpt>
      <trkpt lat="45.1702030" lon="-92.8968730">
        <ele>318.8100000</ele>
        <time>2009-06-14T16:27:25Z</time>
      </trkpt>
      <trkpt lat="45.1700620" lon="-92.8967380">
        <ele>318.3300000</ele>
        <time>2009-06-14T16:27:26Z</time>
      </trkpt>
      <trkpt lat="45.1698630" lon="-92.8966490">
        <ele>318.3300000</ele>
        <time>2009-06-14T16:27:27Z</time>
      </trkpt>
      <trkpt lat="45.1696440" lon="-92.8966000">
        <ele>318.3300000</ele>
        <time>2009-06-14T16:27:28Z</time>
      </trkpt>
      <trkpt lat="45.1694380" lon="-92.8965950">
        <ele>318.3300000</ele>
        <time>2009-06-14T16:27:29Z</time>
      </trkpt>
      <trkpt lat="45.1692320" lon="-92.8966540">
        <ele>318.3300000</ele>
        <time>2009-06-14T16:27:30Z</time>
      </trkpt>
      <trkpt lat="45.1690390" lon="-92.8967510">
        <ele>317.8500000</ele>
        <time>2009-06-14T16:27:31Z</time>
      </trkpt>
      <trkpt lat="45.1688470" lon="-92.8968520">
        <ele>317.3700000</ele>
        <time>2009-06-14T16:27:32Z</time>
      </trkpt>
      <trkpt lat="45.1686530" lon="-92.8969530">
        <ele>317.3700000</ele>
        <time>2009-06-14T16:27:33Z</time>
      </trkpt>
      <trkpt lat="45.1680650" lon="-92.8971860">
        <ele>318.3300000</ele>
        <time>2009-06-14T16:27:36Z</time>
      </trkpt>
      <trkpt lat="45.1678620" lon="-92.8972170">
        <ele>319.3000000</ele>
        <time>2009-06-14T16:27:37Z</time>
      </trkpt>
      <trkpt lat="45.1654350" lon="-92.8972400">
        <ele>318.3300000</ele>
        <time>2009-06-14T16:27:48Z</time>
      </trkpt>
      <trkpt lat="45.1618600" lon="-92.8974220">
        <ele>316.4100000</ele>
        <time>2009-06-14T16:28:04Z</time>
      </trkpt>
      <trkpt lat="45.1597740" lon="-92.8974610">
        <ele>315.4500000</ele>
        <time>2009-06-14T16:28:15Z</time>
      </trkpt>
      <trkpt lat="45.1564040" lon="-92.8974330">
        <ele>314.4900000</ele>
        <time>2009-06-14T16:28:32Z</time>
      </trkpt>
      <trkpt lat="45.1515730" lon="-92.8974310">
        <ele>316.8900000</ele>
        <time>2009-06-14T16:28:54Z</time>
      </trkpt>
      <trkpt lat="45.1474670" lon="-92.8974500">
        <ele>319.3000000</ele>
        <time>2009-06-14T16:29:14Z</time>
      </trkpt>
      <trkpt lat="45.1439810" lon="-92.8974740">
        <ele>315.4500000</ele>
        <time>2009-06-14T16:29:32Z</time>
      </trkpt>
      <trkpt lat="45.1403460" lon="-92.8975010">
        <ele>312.0900000</ele>
        <time>2009-06-14T16:29:50Z</time>
      </trkpt>
      <trkpt lat="45.1380160" lon="-92.8975590">
        <ele>309.6800000</ele>
        <time>2009-06-14T16:30:03Z</time>
      </trkpt>
      <trkpt lat="45.1380160" lon="-92.8975590">
        <ele>309.2000000</ele>
        <time>2009-06-14T16:30:04Z</time>
      </trkpt>
      <trkpt lat="45.1377200" lon="-92.8977570">
        <ele>308.7200000</ele>
        <time>2009-06-14T16:30:05Z</time>
      </trkpt>
      <trkpt lat="45.1375720" lon="-92.8978650">
        <ele>308.2400000</ele>
        <time>2009-06-14T16:30:06Z</time>
      </trkpt>
      <trkpt lat="45.1360070" lon="-92.8992260">
        <ele>309.6800000</ele>
        <time>2009-06-14T16:30:17Z</time>
      </trkpt>
      <trkpt lat="45.1349990" lon="-92.9006800">
        <ele>309.2000000</ele>
        <time>2009-06-14T16:30:26Z</time>
      </trkpt>
      <trkpt lat="45.1341390" lon="-92.9018660">
        <ele>307.2800000</ele>
        <time>2009-06-14T16:30:33Z</time>
      </trkpt>
      <trkpt lat="45.1339930" lon="-92.9019780">
        <ele>307.7600000</ele>
        <time>2009-06-14T16:30:34Z</time>
      </trkpt>
      <trkpt lat="45.1338360" lon="-92.9020900">
        <ele>308.2400000</ele>
        <time>2009-06-14T16:30:35Z</time>
      </trkpt>
      <trkpt lat="45.1336760" lon="-92.9021500">
        <ele>309.2000000</ele>
        <time>2009-06-14T16:30:36Z</time>
      </trkpt>
      <trkpt lat="45.1335010" lon="-92.9022040">
        <ele>310.1600000</ele>
        <time>2009-06-14T16:30:37Z</time>
      </trkpt>
      <trkpt lat="45.1317940" lon="-92.9025010">
        <ele>313.0500000</ele>
        <time>2009-06-14T16:30:47Z</time>
      </trkpt>
      <trkpt lat="45.1286430" lon="-92.9025260">
        <ele>310.6400000</ele>
        <time>2009-06-14T16:31:06Z</time>
      </trkpt>
      <trkpt lat="45.1277310" lon="-92.9025340">
        <ele>306.8000000</ele>
        <time>2009-06-14T16:31:15Z</time>
      </trkpt>
      <trkpt lat="45.1272470" lon="-92.9025370">
        <ele>305.8400000</ele>
        <time>2009-06-14T16:31:26Z</time>
      </trkpt>
      <trkpt lat="45.1272450" lon="-92.9026670">
        <ele>305.3600000</ele>
        <time>2009-06-14T16:31:27Z</time>
      </trkpt>
      <trkpt lat="45.1272450" lon="-92.9027590">
        <ele>304.8800000</ele>
        <time>2009-06-14T16:31:28Z</time>
      </trkpt>
      <trkpt lat="45.1272450" lon="-92.9028730">
        <ele>304.8800000</ele>
        <time>2009-06-14T16:31:29Z</time>
      </trkpt>
      <trkpt lat="45.1272450" lon="-92.9030150">
        <ele>304.3900000</ele>
        <time>2009-06-14T16:31:30Z</time>
      </trkpt>
      <trkpt lat="45.1272450" lon="-92.9044910">
        <ele>304.8800000</ele>
        <time>2009-06-14T16:31:37Z</time>
      </trkpt>
      <trkpt lat="45.1272270" lon="-92.9079390">
        <ele>311.6000000</ele>
        <time>2009-06-14T16:31:50Z</time>
      </trkpt>
      <trkpt lat="45.1272020" lon="-92.9131500">
        <ele>310.6400000</ele>
        <time>2009-06-14T16:32:10Z</time>
      </trkpt>
      <trkpt lat="45.1272020" lon="-92.9167030">
        <ele>309.2000000</ele>
        <time>2009-06-14T16:32:23Z</time>
      </trkpt>
      <trkpt lat="45.1272020" lon="-92.9224940">
        <ele>306.8000000</ele>
        <time>2009-06-14T16:32:43Z</time>
      </trkpt>
      <trkpt lat="45.1272640" lon="-92.9276960">
        <ele>305.8400000</ele>
        <time>2009-06-14T16:33:01Z</time>
      </trkpt>
      <trkpt lat="45.1273510" lon="-92.9282260">
        <ele>305.3600000</ele>
        <time>2009-06-14T16:33:03Z</time>
      </trkpt>
      <trkpt lat="45.1274280" lon="-92.9284830">
        <ele>305.8400000</ele>
        <time>2009-06-14T16:33:04Z</time>
      </trkpt>
      <trkpt lat="45.1275270" lon="-92.9287080">
        <ele>305.3600000</ele>
        <time>2009-06-14T16:33:05Z</time>
      </trkpt>
      <trkpt lat="45.1276500" lon="-92.9289260">
        <ele>304.8800000</ele>
        <time>2009-06-14T16:33:06Z</time>
      </trkpt>
      <trkpt lat="45.1277740" lon="-92.9291470">
        <ele>304.3900000</ele>
        <time>2009-06-14T16:33:07Z</time>
      </trkpt>
      <trkpt lat="45.1279060" lon="-92.9293480">
        <ele>303.4300000</ele>
        <time>2009-06-14T16:33:08Z</time>
      </trkpt>
      <trkpt lat="45.1280590" lon="-92.9295350">
        <ele>302.9500000</ele>
        <time>2009-06-14T16:33:09Z</time>
      </trkpt>
      <trkpt lat="45.1282110" lon="-92.9297210">
        <ele>302.4700000</ele>
        <time>2009-06-14T16:33:10Z</time>
      </trkpt>
      <trkpt lat="45.1294180" lon="-92.9313160">
        <ele>302.4700000</ele>
        <time>2009-06-14T16:33:19Z</time>
      </trkpt>
      <trkpt lat="45.1295300" lon="-92.9315080">
        <ele>302.4700000</ele>
        <time>2009-06-14T16:33:20Z</time>
      </trkpt>
      <trkpt lat="45.1296250" lon="-92.9317160">
        <ele>302.9500000</ele>
        <time>2009-06-14T16:33:21Z</time>
      </trkpt>
      <trkpt lat="45.1296860" lon="-92.9319580">
        <ele>303.4300000</ele>
        <time>2009-06-14T16:33:22Z</time>
      </trkpt>
      <trkpt lat="45.1297470" lon="-92.9322040">
        <ele>303.9100000</ele>
        <time>2009-06-14T16:33:23Z</time>
      </trkpt>
      <trkpt lat="45.1299680" lon="-92.9340330">
        <ele>295.7400000</ele>
        <time>2009-06-14T16:33:30Z</time>
      </trkpt>
      <trkpt lat="45.1297020" lon="-92.9358700">
        <ele>295.2600000</ele>
        <time>2009-06-14T16:33:37Z</time>
      </trkpt>
      <trkpt lat="45.1288940" lon="-92.9404380">
        <ele>293.8200000</ele>
        <time>2009-06-14T16:33:54Z</time>
      </trkpt>
      <trkpt lat="45.1284780" lon="-92.9421390">
        <ele>291.9000000</ele>
        <time>2009-06-14T16:34:01Z</time>
      </trkpt>
      <trkpt lat="45.1283820" lon="-92.9423500">
        <ele>291.9000000</ele>
        <time>2009-06-14T16:34:02Z</time>
      </trkpt>
      <trkpt lat="45.1282710" lon="-92.9425490">
        <ele>292.3800000</ele>
        <time>2009-06-14T16:34:03Z</time>
      </trkpt>
      <trkpt lat="45.1282320" lon="-92.9426200">
        <ele>292.3800000</ele>
        <time>2009-06-14T16:34:04Z</time>
      </trkpt>
      <trkpt lat="45.1280010" lon="-92.9428750">
        <ele>292.3800000</ele>
        <time>2009-06-14T16:34:05Z</time>
      </trkpt>
      <trkpt lat="45.1278610" lon="-92.9430280">
        <ele>292.3800000</ele>
        <time>2009-06-14T16:34:06Z</time>
      </trkpt>
      <trkpt lat="45.1277000" lon="-92.9431480">
        <ele>294.3000000</ele>
        <time>2009-06-14T16:34:07Z</time>
      </trkpt>
      <trkpt lat="45.1275240" lon="-92.9432430">
        <ele>294.7800000</ele>
        <time>2009-06-14T16:34:08Z</time>
      </trkpt>
      <trkpt lat="45.1273460" lon="-92.9433380">
        <ele>296.2200000</ele>
        <time>2009-06-14T16:34:09Z</time>
      </trkpt>
      <trkpt lat="45.1271740" lon="-92.9433970">
        <ele>297.6700000</ele>
        <time>2009-06-14T16:34:10Z</time>
      </trkpt>
      <trkpt lat="45.1269830" lon="-92.9434060">
        <ele>299.1100000</ele>
        <time>2009-06-14T16:34:11Z</time>
      </trkpt>
      <trkpt lat="45.1267890" lon="-92.9434160">
        <ele>301.0300000</ele>
        <time>2009-06-14T16:34:12Z</time>
      </trkpt>
      <trkpt lat="45.1265970" lon="-92.9434250">
        <ele>302.9500000</ele>
        <time>2009-06-14T16:34:13Z</time>
      </trkpt>
      <trkpt lat="45.1249040" lon="-92.9435570">
        <ele>309.6800000</ele>
        <time>2009-06-14T16:34:23Z</time>
      </trkpt>
      <trkpt lat="45.1247610" lon="-92.9436080">
        <ele>310.1600000</ele>
        <time>2009-06-14T16:34:24Z</time>
      </trkpt>
      <trkpt lat="45.1246170" lon="-92.9436870">
        <ele>310.1600000</ele>
        <time>2009-06-14T16:34:25Z</time>
      </trkpt>
      <trkpt lat="45.1244700" lon="-92.9437670">
        <ele>310.1600000</ele>
        <time>2009-06-14T16:34:26Z</time>
      </trkpt>
      <trkpt lat="45.1243390" lon="-92.9438610">
        <ele>309.6800000</ele>
        <time>2009-06-14T16:34:27Z</time>
      </trkpt>
      <trkpt lat="45.1242220" lon="-92.9440140">
        <ele>309.6800000</ele>
        <time>2009-06-14T16:34:28Z</time>
      </trkpt>
      <trkpt lat="45.1241010" lon="-92.9441710">
        <ele>309.2000000</ele>
        <time>2009-06-14T16:34:29Z</time>
      </trkpt>
      <trkpt lat="45.1239780" lon="-92.9443300">
        <ele>308.2400000</ele>
        <time>2009-06-14T16:34:30Z</time>
      </trkpt>
      <trkpt lat="45.1238880" lon="-92.9445100">
        <ele>307.7600000</ele>
        <time>2009-06-14T16:34:31Z</time>
      </trkpt>
      <trkpt lat="45.1238030" lon="-92.9447230">
        <ele>307.2800000</ele>
        <time>2009-06-14T16:34:32Z</time>
      </trkpt>
      <trkpt lat="45.1237680" lon="-92.9448090">
        <ele>306.8000000</ele>
        <time>2009-06-14T16:34:33Z</time>
      </trkpt>
      <trkpt lat="45.1236870" lon="-92.9451760">
        <ele>305.8400000</ele>
        <time>2009-06-14T16:34:34Z</time>
      </trkpt>
      <trkpt lat="45.1236830" lon="-92.9454030">
        <ele>306.3200000</ele>
        <time>2009-06-14T16:34:35Z</time>
      </trkpt>
      <trkpt lat="45.1236830" lon="-92.9456610">
        <ele>306.8000000</ele>
        <time>2009-06-14T16:34:36Z</time>
      </trkpt>
      <trkpt lat="45.1236830" lon="-92.9459180">
        <ele>306.8000000</ele>
        <time>2009-06-14T16:34:37Z</time>
      </trkpt>
      <trkpt lat="45.1236830" lon="-92.9461790">
        <ele>307.2800000</ele>
        <time>2009-06-14T16:34:38Z</time>
      </trkpt>
      <trkpt lat="45.1236870" lon="-92.9500510">
        <ele>314.4900000</ele>
        <time>2009-06-14T16:34:53Z</time>
      </trkpt>
      <trkpt lat="45.1237200" lon="-92.9542850">
        <ele>308.2400000</ele>
        <time>2009-06-14T16:35:09Z</time>
      </trkpt>
      <trkpt lat="45.1236430" lon="-92.9584230">
        <ele>305.8400000</ele>
        <time>2009-06-14T16:35:24Z</time>
      </trkpt>
      <trkpt lat="45.1235800" lon="-92.9586650">
        <ele>305.3600000</ele>
        <time>2009-06-14T16:35:25Z</time>
      </trkpt>
      <trkpt lat="45.1235080" lon="-92.9589180">
        <ele>304.8800000</ele>
        <time>2009-06-14T16:35:26Z</time>
      </trkpt>
      <trkpt lat="45.1234220" lon="-92.9591500">
        <ele>304.3900000</ele>
        <time>2009-06-14T16:35:27Z</time>
      </trkpt>
      <trkpt lat="45.1233080" lon="-92.9593760">
        <ele>303.4300000</ele>
        <time>2009-06-14T16:35:28Z</time>
      </trkpt>
      <trkpt lat="45.1231820" lon="-92.9595690">
        <ele>302.9500000</ele>
        <time>2009-06-14T16:35:29Z</time>
      </trkpt>
      <trkpt lat="45.1230290" lon="-92.9597450">
        <ele>301.9900000</ele>
        <time>2009-06-14T16:35:30Z</time>
      </trkpt>
      <trkpt lat="45.1228730" lon="-92.9599250">
        <ele>301.0300000</ele>
        <time>2009-06-14T16:35:31Z</time>
      </trkpt>
      <trkpt lat="45.1227170" lon="-92.9601050">
        <ele>300.0700000</ele>
        <time>2009-06-14T16:35:32Z</time>
      </trkpt>
      <trkpt lat="45.1225420" lon="-92.9602070">
        <ele>299.1100000</ele>
        <time>2009-06-14T16:35:33Z</time>
      </trkpt>
      <trkpt lat="45.1223490" lon="-92.9603030">
        <ele>298.1500000</ele>
        <time>2009-06-14T16:35:34Z</time>
      </trkpt>
      <trkpt lat="45.1221550" lon="-92.9603890">
        <ele>298.1500000</ele>
        <time>2009-06-14T16:35:35Z</time>
      </trkpt>
      <trkpt lat="45.1219640" lon="-92.9604300">
        <ele>297.6700000</ele>
        <time>2009-06-14T16:35:36Z</time>
      </trkpt>
      <trkpt lat="45.1217620" lon="-92.9604300">
        <ele>297.1800000</ele>
        <time>2009-06-14T16:35:37Z</time>
      </trkpt>
      <trkpt lat="45.1215590" lon="-92.9604300">
        <ele>296.7000000</ele>
        <time>2009-06-14T16:35:38Z</time>
      </trkpt>
      <trkpt lat="45.1202250" lon="-92.9606200">
        <ele>296.7000000</ele>
        <time>2009-06-14T16:35:45Z</time>
      </trkpt>
      <trkpt lat="45.1200540" lon="-92.9607250">
        <ele>296.7000000</ele>
        <time>2009-06-14T16:35:46Z</time>
      </trkpt>
      <trkpt lat="45.1198910" lon="-92.9608340">
        <ele>296.7000000</ele>
        <time>2009-06-14T16:35:47Z</time>
      </trkpt>
      <trkpt lat="45.1197460" lon="-92.9609970">
        <ele>297.1800000</ele>
        <time>2009-06-14T16:35:48Z</time>
      </trkpt>
      <trkpt lat="45.1196020" lon="-92.9611580">
        <ele>297.1800000</ele>
        <time>2009-06-14T16:35:49Z</time>
      </trkpt>
      <trkpt lat="45.1194850" lon="-92.9613360">
        <ele>297.1800000</ele>
        <time>2009-06-14T16:35:50Z</time>
      </trkpt>
      <trkpt lat="45.1193690" lon="-92.9615350">
        <ele>297.6700000</ele>
        <time>2009-06-14T16:35:51Z</time>
      </trkpt>
      <trkpt lat="45.1192620" lon="-92.9617180">
        <ele>297.6700000</ele>
        <time>2009-06-14T16:35:52Z</time>
      </trkpt>
      <trkpt lat="45.1191750" lon="-92.9619620">
        <ele>297.6700000</ele>
        <time>2009-06-14T16:35:53Z</time>
      </trkpt>
      <trkpt lat="45.1190900" lon="-92.9622010">
        <ele>297.1800000</ele>
        <time>2009-06-14T16:35:54Z</time>
      </trkpt>
      <trkpt lat="45.1190320" lon="-92.9624410">
        <ele>297.1800000</ele>
        <time>2009-06-14T16:35:55Z</time>
      </trkpt>
      <trkpt lat="45.1189990" lon="-92.9627120">
        <ele>297.1800000</ele>
        <time>2009-06-14T16:35:56Z</time>
      </trkpt>
      <trkpt lat="45.1189640" lon="-92.9629880">
        <ele>298.1500000</ele>
        <time>2009-06-14T16:35:57Z</time>
      </trkpt>
      <trkpt lat="45.1189650" lon="-92.9632530">
        <ele>298.1500000</ele>
        <time>2009-06-14T16:35:58Z</time>
      </trkpt>
      <trkpt lat="45.1189690" lon="-92.9635280">
        <ele>298.1500000</ele>
        <time>2009-06-14T16:35:59Z</time>
      </trkpt>
      <trkpt lat="45.1190300" lon="-92.9681640">
        <ele>297.1800000</ele>
        <time>2009-06-14T16:36:16Z</time>
      </trkpt>
      <trkpt lat="45.1190750" lon="-92.9714360">
        <ele>293.8200000</ele>
        <time>2009-06-14T16:36:29Z</time>
      </trkpt>
      <trkpt lat="45.1190900" lon="-92.9725730">
        <ele>292.8600000</ele>
        <time>2009-06-14T16:36:36Z</time>
      </trkpt>
      <trkpt lat="45.1190910" lon="-92.9726390">
        <ele>292.8600000</ele>
        <time>2009-06-14T16:36:37Z</time>
      </trkpt>
      <trkpt lat="45.1189530" lon="-92.9726250">
        <ele>292.8600000</ele>
        <time>2009-06-14T16:36:38Z</time>
      </trkpt>
      <trkpt lat="45.1188690" lon="-92.9726280">
        <ele>292.8600000</ele>
        <time>2009-06-14T16:36:39Z</time>
      </trkpt>
      <trkpt lat="45.1187700" lon="-92.9726330">
        <ele>292.8600000</ele>
        <time>2009-06-14T16:36:40Z</time>
      </trkpt>
      <trkpt lat="45.1186610" lon="-92.9726380">
        <ele>292.3800000</ele>
        <time>2009-06-14T16:36:41Z</time>
      </trkpt>
      <trkpt lat="45.1175830" lon="-92.9728020">
        <ele>291.9000000</ele>
        <time>2009-06-14T16:36:49Z</time>
      </trkpt>
      <trkpt lat="45.1171330" lon="-92.9728660">
        <ele>292.3800000</ele>
        <time>2009-06-14T16:36:52Z</time>
      </trkpt>
      <trkpt lat="45.1169870" lon="-92.9728680">
        <ele>292.8600000</ele>
        <time>2009-06-14T16:36:53Z</time>
      </trkpt>
      <trkpt lat="45.1168380" lon="-92.9728430">
        <ele>293.3400000</ele>
        <time>2009-06-14T16:36:54Z</time>
      </trkpt>
      <trkpt lat="45.1166960" lon="-92.9727960">
        <ele>293.3400000</ele>
        <time>2009-06-14T16:36:55Z</time>
      </trkpt>
      <trkpt lat="45.1165540" lon="-92.9727280">
        <ele>293.3400000</ele>
        <time>2009-06-14T16:36:56Z</time>
      </trkpt>
      <trkpt lat="45.1164110" lon="-92.9726590">
        <ele>293.3400000</ele>
        <time>2009-06-14T16:36:57Z</time>
      </trkpt>
      <trkpt lat="45.1150270" lon="-92.9723040">
        <ele>295.7400000</ele>
        <time>2009-06-14T16:37:06Z</time>
      </trkpt>
      <trkpt lat="45.1135510" lon="-92.9723080">
        <ele>294.7800000</ele>
        <time>2009-06-14T16:37:17Z</time>
      </trkpt>
      <trkpt lat="45.1134420" lon="-92.9723860">
        <ele>293.8200000</ele>
        <time>2009-06-14T16:37:18Z</time>
      </trkpt>
      <trkpt lat="45.1133290" lon="-92.9724670">
        <ele>293.3400000</ele>
        <time>2009-06-14T16:37:19Z</time>
      </trkpt>
      <trkpt lat="45.1132430" lon="-92.9725750">
        <ele>292.8600000</ele>
        <time>2009-06-14T16:37:20Z</time>
      </trkpt>
      <trkpt lat="45.1131560" lon="-92.9727110">
        <ele>291.9000000</ele>
        <time>2009-06-14T16:37:21Z</time>
      </trkpt>
      <trkpt lat="45.1130680" lon="-92.9728500">
        <ele>290.9400000</ele>
        <time>2009-06-14T16:37:22Z</time>
      </trkpt>
      <trkpt lat="45.1129920" lon="-92.9729830">
        <ele>290.4600000</ele>
        <time>2009-06-14T16:37:23Z</time>
      </trkpt>
      <trkpt lat="45.1129550" lon="-92.9731630">
        <ele>289.9700000</ele>
        <time>2009-06-14T16:37:24Z</time>
      </trkpt>
      <trkpt lat="45.1129180" lon="-92.9733450">
        <ele>289.0100000</ele>
        <time>2009-06-14T16:37:25Z</time>
      </trkpt>
      <trkpt lat="45.1128800" lon="-92.9735300">
        <ele>288.5300000</ele>
        <time>2009-06-14T16:37:26Z</time>
      </trkpt>
      <trkpt lat="45.1125580" lon="-92.9749850">
        <ele>282.7700000</ele>
        <time>2009-06-14T16:37:34Z</time>
      </trkpt>
      <trkpt lat="45.1124940" lon="-92.9751380">
        <ele>282.2800000</ele>
        <time>2009-06-14T16:37:35Z</time>
      </trkpt>
      <trkpt lat="45.1124060" lon="-92.9752260">
        <ele>281.3200000</ele>
        <time>2009-06-14T16:37:36Z</time>
      </trkpt>
      <trkpt lat="45.1123160" lon="-92.9753160">
        <ele>281.3200000</ele>
        <time>2009-06-14T16:37:37Z</time>
      </trkpt>
      <trkpt lat="45.1122240" lon="-92.9753800">
        <ele>280.8400000</ele>
        <time>2009-06-14T16:37:38Z</time>
      </trkpt>
      <trkpt lat="45.1121290" lon="-92.9754430">
        <ele>280.3600000</ele>
        <time>2009-06-14T16:37:39Z</time>
      </trkpt>
      <trkpt lat="45.1120380" lon="-92.9754940">
        <ele>279.8800000</ele>
        <time>2009-06-14T16:37:40Z</time>
      </trkpt>
      <trkpt lat="45.1119360" lon="-92.9754940">
        <ele>279.8800000</ele>
        <time>2009-06-14T16:37:41Z</time>
      </trkpt>
      <trkpt lat="45.1118400" lon="-92.9754940">
        <ele>279.4000000</ele>
        <time>2009-06-14T16:37:42Z</time>
      </trkpt>
      <trkpt lat="45.1117310" lon="-92.9754940">
        <ele>279.4000000</ele>
        <time>2009-06-14T16:37:43Z</time>
      </trkpt>
      <trkpt lat="45.1116200" lon="-92.9754940">
        <ele>279.4000000</ele>
        <time>2009-06-14T16:37:44Z</time>
      </trkpt>
      <trkpt lat="45.1105590" lon="-92.9754940">
        <ele>288.5300000</ele>
        <time>2009-06-14T16:37:56Z</time>
      </trkpt>
      <trkpt lat="45.1104220" lon="-92.9754940">
        <ele>289.0100000</ele>
        <time>2009-06-14T16:38:00Z</time>
      </trkpt>
      <trkpt lat="45.1104220" lon="-92.9754940">
        <ele>289.0100000</ele>
        <time>2009-06-14T16:38:01Z</time>
      </trkpt>
      <trkpt lat="45.1104220" lon="-92.9753400">
        <ele>289.9700000</ele>
        <time>2009-06-14T16:38:02Z</time>
      </trkpt>
      <trkpt lat="45.1104220" lon="-92.9752360">
        <ele>289.9700000</ele>
        <time>2009-06-14T16:38:03Z</time>
      </trkpt>
      <trkpt lat="45.1104220" lon="-92.9751130">
        <ele>289.0100000</ele>
        <time>2009-06-14T16:38:04Z</time>
      </trkpt>
      <trkpt lat="45.1104220" lon="-92.9749830">
        <ele>289.0100000</ele>
        <time>2009-06-14T16:38:05Z</time>
      </trkpt>
      <trkpt lat="45.1104130" lon="-92.9735940">
        <ele>293.3400000</ele>
        <time>2009-06-14T16:38:15Z</time>
      </trkpt>
      <trkpt lat="45.1103640" lon="-92.9722140">
        <ele>297.6700000</ele>
        <time>2009-06-14T16:38:25Z</time>
      </trkpt>
      <trkpt lat="45.1103310" lon="-92.9720980">
        <ele>298.6300000</ele>
        <time>2009-06-14T16:38:26Z</time>
      </trkpt>
      <trkpt lat="45.1102550" lon="-92.9720220">
        <ele>299.5900000</ele>
        <time>2009-06-14T16:38:27Z</time>
      </trkpt>
      <trkpt lat="45.1101880" lon="-92.9719640">
        <ele>300.0700000</ele>
        <time>2009-06-14T16:38:28Z</time>
      </trkpt>
      <trkpt lat="45.1101120" lon="-92.9719240">
        <ele>300.5500000</ele>
        <time>2009-06-14T16:38:29Z</time>
      </trkpt>
      <trkpt lat="45.1100280" lon="-92.9718800">
        <ele>300.5500000</ele>
        <time>2009-06-14T16:38:30Z</time>
      </trkpt>
      <trkpt lat="45.1099370" lon="-92.9718320">
        <ele>301.9900000</ele>
        <time>2009-06-14T16:38:31Z</time>
      </trkpt>
      <trkpt lat="45.1085520" lon="-92.9711590">
        <ele>304.8800000</ele>
        <time>2009-06-14T16:38:45Z</time>
      </trkpt>
      <trkpt lat="45.1083420" lon="-92.9711590">
        <ele>304.3900000</ele>
        <time>2009-06-14T16:38:47Z</time>
      </trkpt>
      <trkpt lat="45.1082330" lon="-92.9711590">
        <ele>304.3900000</ele>
        <time>2009-06-14T16:38:48Z</time>
      </trkpt>
      <trkpt lat="45.1074010" lon="-92.9714820">
        <ele>301.0300000</ele>
        <time>2009-06-14T16:38:57Z</time>
      </trkpt>
      <trkpt lat="45.1070660" lon="-92.9716340">
        <ele>297.1800000</ele>
        <time>2009-06-14T16:39:06Z</time>
      </trkpt>
      <trkpt lat="45.1066060" lon="-92.9718110">
        <ele>293.8200000</ele>
        <time>2009-06-14T16:39:12Z</time>
      </trkpt>
      <trkpt lat="45.1054510" lon="-92.9722540">
        <ele>288.5300000</ele>
        <time>2009-06-14T16:39:21Z</time>
      </trkpt>
      <trkpt lat="45.1047260" lon="-92.9725310">
        <ele>287.5700000</ele>
        <time>2009-06-14T16:39:29Z</time>
      </trkpt>
      <trkpt lat="45.1044540" lon="-92.9726260">
        <ele>288.5300000</ele>
        <time>2009-06-14T16:39:37Z</time>
      </trkpt>
      <trkpt lat="45.1042050" lon="-92.9726520">
        <ele>291.9000000</ele>
        <time>2009-06-14T16:39:49Z</time>
      </trkpt>
      <trkpt lat="45.1041580" lon="-92.9726400">
        <ele>292.3800000</ele>
        <time>2009-06-14T16:39:50Z</time>
      </trkpt>
      <trkpt lat="45.1041160" lon="-92.9726300">
        <ele>291.9000000</ele>
        <time>2009-06-14T16:39:51Z</time>
      </trkpt>
      <trkpt lat="45.1040800" lon="-92.9725470">
        <ele>291.9000000</ele>
        <time>2009-06-14T16:39:52Z</time>
      </trkpt>
      <trkpt lat="45.1040920" lon="-92.9724550">
        <ele>291.4200000</ele>
        <time>2009-06-14T16:39:53Z</time>
      </trkpt>
      <trkpt lat="45.1041070" lon="-92.9723510">
        <ele>291.4200000</ele>
        <time>2009-06-14T16:39:54Z</time>
      </trkpt>
      <trkpt lat="45.1041220" lon="-92.9722400">
        <ele>291.4200000</ele>
        <time>2009-06-14T16:39:55Z</time>
      </trkpt>
      <trkpt lat="45.1042060" lon="-92.9715390">
        <ele>290.9400000</ele>
        <time>2009-06-14T16:40:01Z</time>
      </trkpt>
      <trkpt lat="45.1042820" lon="-92.9701290">
        <ele>288.5300000</ele>
        <time>2009-06-14T16:40:13Z</time>
      </trkpt>
      <trkpt lat="45.1041560" lon="-92.9683360">
        <ele>290.9400000</ele>
        <time>2009-06-14T16:40:24Z</time>
      </trkpt>
      <trkpt lat="45.1039740" lon="-92.9658670">
        <ele>295.2600000</ele>
        <time>2009-06-14T16:40:40Z</time>
      </trkpt>
      <trkpt lat="45.1038990" lon="-92.9648590">
        <ele>296.2200000</ele>
        <time>2009-06-14T16:40:46Z</time>
      </trkpt>
      <trkpt lat="45.1039530" lon="-92.9647240">
        <ele>296.2200000</ele>
        <time>2009-06-14T16:40:47Z</time>
      </trkpt>
      <trkpt lat="45.1040100" lon="-92.9645900">
        <ele>295.7400000</ele>
        <time>2009-06-14T16:40:48Z</time>
      </trkpt>
      <trkpt lat="45.1040790" lon="-92.9644650">
        <ele>296.2200000</ele>
        <time>2009-06-14T16:40:49Z</time>
      </trkpt>
      <trkpt lat="45.1041390" lon="-92.9643640">
        <ele>296.2200000</ele>
        <time>2009-06-14T16:40:50Z</time>
      </trkpt>
      <trkpt lat="45.1041770" lon="-92.9642620">
        <ele>295.7400000</ele>
        <time>2009-06-14T16:40:51Z</time>
      </trkpt>
      <trkpt lat="45.1042080" lon="-92.9641540">
        <ele>295.7400000</ele>
        <time>2009-06-14T16:40:52Z</time>
      </trkpt>
      <trkpt lat="45.1042350" lon="-92.9640580">
        <ele>294.7800000</ele>
        <time>2009-06-14T16:40:53Z</time>
      </trkpt>
      <trkpt lat="45.1042330" lon="-92.9639540">
        <ele>294.3000000</ele>
        <time>2009-06-14T16:40:54Z</time>
      </trkpt>
      <trkpt lat="45.1042170" lon="-92.9638160">
        <ele>293.8200000</ele>
        <time>2009-06-14T16:40:55Z</time>
      </trkpt>
      <trkpt lat="45.1041990" lon="-92.9636640">
        <ele>293.8200000</ele>
        <time>2009-06-14T16:40:56Z</time>
      </trkpt>
      <trkpt lat="45.1041810" lon="-92.9635080">
        <ele>293.8200000</ele>
        <time>2009-06-14T16:40:57Z</time>
      </trkpt>
      <trkpt lat="45.1041630" lon="-92.9633510">
        <ele>294.3000000</ele>
        <time>2009-06-14T16:40:58Z</time>
      </trkpt>
      <trkpt lat="45.1041130" lon="-92.9621350">
        <ele>298.6300000</ele>
        <time>2009-06-14T16:41:08Z</time>
      </trkpt>
      <trkpt lat="45.1041530" lon="-92.9613200">
        <ele>302.9500000</ele>
        <time>2009-06-14T16:41:19Z</time>
      </trkpt>
      <trkpt lat="45.1042370" lon="-92.9602420">
        <ele>299.1100000</ele>
        <time>2009-06-14T16:41:28Z</time>
      </trkpt>
      <trkpt lat="45.1045720" lon="-92.9587540">
        <ele>294.3000000</ele>
        <time>2009-06-14T16:41:39Z</time>
      </trkpt>
      <trkpt lat="45.1047380" lon="-92.9580840">
        <ele>292.3800000</ele>
        <time>2009-06-14T16:41:47Z</time>
      </trkpt>
      <trkpt lat="45.1047950" lon="-92.9578510">
        <ele>291.4200000</ele>
        <time>2009-06-14T16:41:58Z</time>
      </trkpt>
      <trkpt lat="45.1049330" lon="-92.9572910">
        <ele>291.4200000</ele>
        <time>2009-06-14T16:42:10Z</time>
      </trkpt>
      <trkpt lat="45.1049350" lon="-92.9573740">
        <ele>291.4200000</ele>
        <time>2009-06-14T16:42:13Z</time>
      </trkpt>
      <trkpt lat="45.1047390" lon="-92.9580790">
        <ele>292.3800000</ele>
        <time>2009-06-14T16:42:22Z</time>
      </trkpt>
      <trkpt lat="45.1043720" lon="-92.9595660">
        <ele>288.0500000</ele>
        <time>2009-06-14T16:42:37Z</time>
      </trkpt>
      <trkpt lat="45.1043220" lon="-92.9598130">
        <ele>288.5300000</ele>
        <time>2009-06-14T16:42:39Z</time>
      </trkpt>
      <trkpt lat="45.1041370" lon="-92.9616310">
        <ele>291.4200000</ele>
        <time>2009-06-14T16:42:51Z</time>
      </trkpt>
      <trkpt lat="45.1042090" lon="-92.9637540">
        <ele>282.7700000</ele>
        <time>2009-06-14T16:43:04Z</time>
      </trkpt>
      <trkpt lat="45.1041890" lon="-92.9642200">
        <ele>283.7300000</ele>
        <time>2009-06-14T16:43:07Z</time>
      </trkpt>
      <trkpt lat="45.1041510" lon="-92.9643450">
        <ele>283.7300000</ele>
        <time>2009-06-14T16:43:08Z</time>
      </trkpt>
      <trkpt lat="45.1040850" lon="-92.9644550">
        <ele>283.7300000</ele>
        <time>2009-06-14T16:43:09Z</time>
      </trkpt>
      <trkpt lat="45.1040230" lon="-92.9645590">
        <ele>284.2100000</ele>
        <time>2009-06-14T16:43:10Z</time>
      </trkpt>
      <trkpt lat="45.1039760" lon="-92.9646700">
        <ele>284.2100000</ele>
        <time>2009-06-14T16:43:11Z</time>
      </trkpt>
      <trkpt lat="45.1039210" lon="-92.9647990">
        <ele>285.1700000</ele>
        <time>2009-06-14T16:43:12Z</time>
      </trkpt>
      <trkpt lat="45.1039050" lon="-92.9649350">
        <ele>286.6100000</ele>
        <time>2009-06-14T16:43:13Z</time>
      </trkpt>
      <trkpt lat="45.1039160" lon="-92.9650900">
        <ele>286.6100000</ele>
        <time>2009-06-14T16:43:14Z</time>
      </trkpt>
      <trkpt lat="45.1039290" lon="-92.9652610">
        <ele>286.1300000</ele>
        <time>2009-06-14T16:43:15Z</time>
      </trkpt>
      <trkpt lat="45.1039420" lon="-92.9654440">
        <ele>285.6500000</ele>
        <time>2009-06-14T16:43:16Z</time>
      </trkpt>
      <trkpt lat="45.1041390" lon="-92.9681100">
        <ele>277.4800000</ele>
        <time>2009-06-14T16:43:29Z</time>
      </trkpt>
      <trkpt lat="45.1042560" lon="-92.9706130">
        <ele>281.3200000</ele>
        <time>2009-06-14T16:43:42Z</time>
      </trkpt>
      <trkpt lat="45.1041040" lon="-92.9723740">
        <ele>285.6500000</ele>
        <time>2009-06-14T16:43:53Z</time>
      </trkpt>
      <trkpt lat="45.1040700" lon="-92.9726180">
        <ele>286.1300000</ele>
        <time>2009-06-14T16:43:58Z</time>
      </trkpt>
      <trkpt lat="45.1040190" lon="-92.9726180">
        <ele>286.1300000</ele>
        <time>2009-06-14T16:43:59Z</time>
      </trkpt>
      <trkpt lat="45.1039530" lon="-92.9726180">
        <ele>286.1300000</ele>
        <time>2009-06-14T16:44:00Z</time>
      </trkpt>
      <trkpt lat="45.1038900" lon="-92.9726130">
        <ele>285.6500000</ele>
        <time>2009-06-14T16:44:01Z</time>
      </trkpt>
      <trkpt lat="45.1038050" lon="-92.9725560">
        <ele>286.1300000</ele>
        <time>2009-06-14T16:44:02Z</time>
      </trkpt>
      <trkpt lat="45.1036310" lon="-92.9724170">
        <ele>288.0500000</ele>
        <time>2009-06-14T16:44:04Z</time>
      </trkpt>
      <trkpt lat="45.1035210" lon="-92.9723250">
        <ele>289.9700000</ele>
        <time>2009-06-14T16:44:05Z</time>
      </trkpt>
      <trkpt lat="45.1027090" lon="-92.9713730">
        <ele>294.3000000</ele>
        <time>2009-06-14T16:44:13Z</time>
      </trkpt>
      <trkpt lat="45.1023960" lon="-92.9709870">
        <ele>296.7000000</ele>
        <time>2009-06-14T16:44:16Z</time>
      </trkpt>
      <trkpt lat="45.1022920" lon="-92.9708920">
        <ele>298.1500000</ele>
        <time>2009-06-14T16:44:17Z</time>
      </trkpt>
      <trkpt lat="45.1021640" lon="-92.9708280">
        <ele>299.5900000</ele>
        <time>2009-06-14T16:44:18Z</time>
      </trkpt>
      <trkpt lat="45.1007650" lon="-92.9701710">
        <ele>304.8800000</ele>
        <time>2009-06-14T16:44:29Z</time>
      </trkpt>
      <trkpt lat="45.0995650" lon="-92.9701570">
        <ele>301.9900000</ele>
        <time>2009-06-14T16:44:39Z</time>
      </trkpt>
      <trkpt lat="45.0985300" lon="-92.9701440">
        <ele>297.6700000</ele>
        <time>2009-06-14T16:44:50Z</time>
      </trkpt>
      <trkpt lat="45.0984380" lon="-92.9701430">
        <ele>297.1800000</ele>
        <time>2009-06-14T16:44:51Z</time>
      </trkpt>
      <trkpt lat="45.0983430" lon="-92.9701420">
        <ele>295.7400000</ele>
        <time>2009-06-14T16:44:52Z</time>
      </trkpt>
      <trkpt lat="45.0975070" lon="-92.9701310">
        <ele>293.8200000</ele>
        <time>2009-06-14T16:45:02Z</time>
      </trkpt>
      <trkpt lat="45.0972240" lon="-92.9701290">
        <ele>294.7800000</ele>
        <time>2009-06-14T16:45:09Z</time>
      </trkpt>
      <trkpt lat="45.0964120" lon="-92.9701290">
        <ele>292.3800000</ele>
        <time>2009-06-14T16:45:17Z</time>
      </trkpt>
      <trkpt lat="45.0950810" lon="-92.9701290">
        <ele>305.8400000</ele>
        <time>2009-06-14T16:45:27Z</time>
      </trkpt>
      <trkpt lat="45.0943900" lon="-92.9701290">
        <ele>307.2800000</ele>
        <time>2009-06-14T16:45:35Z</time>
      </trkpt>
      <trkpt lat="45.0943110" lon="-92.9701290">
        <ele>312.0900000</ele>
        <time>2009-06-14T16:45:42Z</time>
      </trkpt>
      <trkpt lat="45.0942610" lon="-92.9700600">
        <ele>311.1200000</ele>
        <time>2009-06-14T16:45:49Z</time>
      </trkpt>
      <trkpt lat="45.0942190" lon="-92.9699410">
        <ele>311.1200000</ele>
        <time>2009-06-14T16:45:50Z</time>
      </trkpt>
      <trkpt lat="45.0941830" lon="-92.9698410">
        <ele>310.6400000</ele>
        <time>2009-06-14T16:45:51Z</time>
      </trkpt>
      <trkpt lat="45.0937920" lon="-92.9687420">
        <ele>310.6400000</ele>
        <time>2009-06-14T16:45:58Z</time>
      </trkpt>
      <trkpt lat="45.0933400" lon="-92.9676610">
        <ele>314.9700000</ele>
        <time>2009-06-14T16:46:06Z</time>
      </trkpt>
      <trkpt lat="45.0932750" lon="-92.9675280">
        <ele>313.5300000</ele>
        <time>2009-06-14T16:46:12Z</time>
      </trkpt>
      <trkpt lat="45.0932540" lon="-92.9674830">
        <ele>312.5700000</ele>
        <time>2009-06-14T16:46:18Z</time>
      </trkpt>
      <trkpt lat="45.0932470" lon="-92.9674680">
        <ele>312.5700000</ele>
        <time>2009-06-14T16:46:19Z</time>
      </trkpt>
      <trkpt lat="45.0932340" lon="-92.9674430">
        <ele>311.1200000</ele>
        <time>2009-06-14T16:46:20Z</time>
      </trkpt>
      <trkpt lat="45.0932200" lon="-92.9674120">
        <ele>311.6000000</ele>
        <time>2009-06-14T16:46:21Z</time>
      </trkpt>
      <trkpt lat="45.0932030" lon="-92.9673780">
        <ele>311.6000000</ele>
        <time>2009-06-14T16:46:22Z</time>
      </trkpt>
      <trkpt lat="45.0931930" lon="-92.9673570">
        <ele>311.6000000</ele>
        <time>2009-06-14T16:46:23Z</time>
      </trkpt>
      <trkpt lat="45.0932140" lon="-92.9674010">
        <ele>311.6000000</ele>
        <time>2009-06-14T16:46:27Z</time>
      </trkpt>
      <trkpt lat="45.0932460" lon="-92.9674670">
        <ele>311.1200000</ele>
        <time>2009-06-14T16:46:28Z</time>
      </trkpt>
      <trkpt lat="45.0932880" lon="-92.9675530">
        <ele>310.6400000</ele>
        <time>2009-06-14T16:46:29Z</time>
      </trkpt>
      <trkpt lat="45.0933320" lon="-92.9676450">
        <ele>310.6400000</ele>
        <time>2009-06-14T16:46:30Z</time>
      </trkpt>
      <trkpt lat="45.0937640" lon="-92.9686610">
        <ele>300.5500000</ele>
        <time>2009-06-14T16:46:37Z</time>
      </trkpt>
      <trkpt lat="45.0944370" lon="-92.9708850">
        <ele>293.8200000</ele>
        <time>2009-06-14T16:46:48Z</time>
      </trkpt>
      <trkpt lat="45.0951870" lon="-92.9731820">
        <ele>292.3800000</ele>
        <time>2009-06-14T16:46:59Z</time>
      </trkpt>
      <trkpt lat="45.0961660" lon="-92.9763050">
        <ele>289.9700000</ele>
        <time>2009-06-14T16:47:14Z</time>
      </trkpt>
      <trkpt lat="45.0968750" lon="-92.9798770">
        <ele>283.2500000</ele>
        <time>2009-06-14T16:47:30Z</time>
      </trkpt>
      <trkpt lat="45.0969890" lon="-92.9834330">
        <ele>273.1500000</ele>
        <time>2009-06-14T16:47:44Z</time>
      </trkpt>
      <trkpt lat="45.0970980" lon="-92.9843080">
        <ele>274.1100000</ele>
        <time>2009-06-14T16:47:47Z</time>
      </trkpt>
      <trkpt lat="45.0971180" lon="-92.9844200">
        <ele>276.0400000</ele>
        <time>2009-06-14T16:47:48Z</time>
      </trkpt>
      <trkpt lat="45.0972400" lon="-92.9847450">
        <ele>276.5200000</ele>
        <time>2009-06-14T16:47:49Z</time>
      </trkpt>
      <trkpt lat="45.0973200" lon="-92.9849580">
        <ele>277.4800000</ele>
        <time>2009-06-14T16:47:50Z</time>
      </trkpt>
      <trkpt lat="45.0973980" lon="-92.9851680">
        <ele>277.9600000</ele>
        <time>2009-06-14T16:47:51Z</time>
      </trkpt>
      <trkpt lat="45.0979960" lon="-92.9873210">
        <ele>278.4400000</ele>
        <time>2009-06-14T16:48:01Z</time>
      </trkpt>
      <trkpt lat="45.0980870" lon="-92.9889870">
        <ele>274.1100000</ele>
        <time>2009-06-14T16:48:09Z</time>
      </trkpt>
      <trkpt lat="45.0979330" lon="-92.9910720">
        <ele>273.6300000</ele>
        <time>2009-06-14T16:48:20Z</time>
      </trkpt>
      <trkpt lat="45.0970740" lon="-92.9943370">
        <ele>272.1900000</ele>
        <time>2009-06-14T16:48:37Z</time>
      </trkpt>
      <trkpt lat="45.0962650" lon="-92.9963850">
        <ele>275.0700000</ele>
        <time>2009-06-14T16:48:48Z</time>
      </trkpt>
      <trkpt lat="45.0947970" lon="-92.9988770">
        <ele>275.5600000</ele>
        <time>2009-06-14T16:49:02Z</time>
      </trkpt>
      <trkpt lat="45.0937870" lon="-93.0012770">
        <ele>276.0400000</ele>
        <time>2009-06-14T16:49:14Z</time>
      </trkpt>
      <trkpt lat="45.0933820" lon="-93.0034100">
        <ele>277.0000000</ele>
        <time>2009-06-14T16:49:24Z</time>
      </trkpt>
      <trkpt lat="45.0933450" lon="-93.0046470">
        <ele>277.4800000</ele>
        <time>2009-06-14T16:49:32Z</time>
      </trkpt>
      <trkpt lat="45.0933410" lon="-93.0054620">
        <ele>277.0000000</ele>
        <time>2009-06-14T16:49:42Z</time>
      </trkpt>
      <trkpt lat="45.0933410" lon="-93.0057100">
        <ele>275.5600000</ele>
        <time>2009-06-14T16:50:17Z</time>
      </trkpt>
      <trkpt lat="45.0933410" lon="-93.0060860">
        <ele>275.5600000</ele>
        <time>2009-06-14T16:50:21Z</time>
      </trkpt>
      <trkpt lat="45.0933410" lon="-93.0061780">
        <ele>275.5600000</ele>
        <time>2009-06-14T16:50:22Z</time>
      </trkpt>
      <trkpt lat="45.0933410" lon="-93.0062660">
        <ele>275.5600000</ele>
        <time>2009-06-14T16:50:23Z</time>
      </trkpt>
      <trkpt lat="45.0932280" lon="-93.0063820">
        <ele>275.5600000</ele>
        <time>2009-06-14T16:50:24Z</time>
      </trkpt>
      <trkpt lat="45.0931370" lon="-93.0064080">
        <ele>275.5600000</ele>
        <time>2009-06-14T16:50:25Z</time>
      </trkpt>
      <trkpt lat="45.0930330" lon="-93.0064380">
        <ele>275.5600000</ele>
        <time>2009-06-14T16:50:26Z</time>
      </trkpt>
      <trkpt lat="45.0929240" lon="-93.0064690">
        <ele>276.0400000</ele>
        <time>2009-06-14T16:50:27Z</time>
      </trkpt>
      <trkpt lat="45.0917060" lon="-93.0068170">
        <ele>278.4400000</ele>
        <time>2009-06-14T16:50:36Z</time>
      </trkpt>
      <trkpt lat="45.0896390" lon="-93.0075620">
        <ele>284.6900000</ele>
        <time>2009-06-14T16:50:50Z</time>
      </trkpt>
      <trkpt lat="45.0885180" lon="-93.0079960">
        <ele>286.1300000</ele>
        <time>2009-06-14T16:50:59Z</time>
      </trkpt>
      <trkpt lat="45.0884630" lon="-93.0080180">
        <ele>286.6100000</ele>
        <time>2009-06-14T16:51:00Z</time>
      </trkpt>
      <trkpt lat="45.0884230" lon="-93.0080360">
        <ele>286.1300000</ele>
        <time>2009-06-14T16:51:01Z</time>
      </trkpt>
      <trkpt lat="45.0884490" lon="-93.0081590">
        <ele>286.6100000</ele>
        <time>2009-06-14T16:51:02Z</time>
      </trkpt>
      <trkpt lat="45.0884150" lon="-93.0088730">
        <ele>285.6500000</ele>
        <time>2009-06-14T16:51:10Z</time>
      </trkpt>
      <trkpt lat="45.0884060" lon="-93.0098100">
        <ele>284.6900000</ele>
        <time>2009-06-14T16:51:20Z</time>
      </trkpt>
      <trkpt lat="45.0884060" lon="-93.0100510">
        <ele>282.2800000</ele>
        <time>2009-06-14T16:51:27Z</time>
      </trkpt>
      <trkpt lat="45.0884060" lon="-93.0102290">
        <ele>279.8800000</ele>
        <time>2009-06-14T16:51:32Z</time>
      </trkpt>
      <trkpt lat="45.0884060" lon="-93.0102680">
        <ele>279.8800000</ele>
        <time>2009-06-14T16:51:33Z</time>
      </trkpt>
      <trkpt lat="45.0883270" lon="-93.0102980">
        <ele>279.4000000</ele>
        <time>2009-06-14T16:51:34Z</time>
      </trkpt>
      <trkpt lat="45.0882740" lon="-93.0102980">
        <ele>278.4400000</ele>
        <time>2009-06-14T16:51:35Z</time>
      </trkpt>
      <trkpt lat="45.0882180" lon="-93.0102980">
        <ele>278.9200000</ele>
        <time>2009-06-14T16:51:36Z</time>
      </trkpt>
      <trkpt lat="45.0881530" lon="-93.0102980">
        <ele>279.4000000</ele>
        <time>2009-06-14T16:51:37Z</time>
      </trkpt>
      <trkpt lat="45.0872710" lon="-93.0103050">
        <ele>283.2500000</ele>
        <time>2009-06-14T16:51:46Z</time>
      </trkpt>
      <trkpt lat="45.0865340" lon="-93.0103360">
        <ele>287.0900000</ele>
        <time>2009-06-14T16:51:56Z</time>
      </trkpt>
      <trkpt lat="45.0864740" lon="-93.0103390">
        <ele>287.0900000</ele>
        <time>2009-06-14T16:51:58Z</time>
      </trkpt>
      <trkpt lat="45.0864500" lon="-93.0103400">
        <ele>287.0900000</ele>
        <time>2009-06-14T16:51:59Z</time>
      </trkpt>
      <trkpt lat="45.0864320" lon="-93.0102680">
        <ele>286.6100000</ele>
        <time>2009-06-14T16:52:00Z</time>
      </trkpt>
      <trkpt lat="45.0864320" lon="-93.0102280">
        <ele>287.0900000</ele>
        <time>2009-06-14T16:52:01Z</time>
      </trkpt>
      <trkpt lat="45.0864320" lon="-93.0101880">
        <ele>287.0900000</ele>
        <time>2009-06-14T16:52:02Z</time>
      </trkpt>
      <trkpt lat="45.0864320" lon="-93.0101510">
        <ele>287.0900000</ele>
        <time>2009-06-14T16:52:03Z</time>
      </trkpt>
      <trkpt lat="45.0864320" lon="-93.0101160">
        <ele>287.0900000</ele>
        <time>2009-06-14T16:52:04Z</time>
      </trkpt>
      <trkpt lat="45.0864320" lon="-93.0099970">
        <ele>288.5300000</ele>
        <time>2009-06-14T16:52:13Z</time>
      </trkpt>
      <trkpt lat="45.0864320" lon="-93.0099970">
        <ele>292.3800000</ele>
        <time>2009-06-14T16:53:02Z</time>
      </trkpt>
    </trkseg>
  </trk>

</gpx>
